<?xml version="1.0" encoding="UTF-8" standalone="no" ?>
<gpx xmlns="http://www.topografix.com/GPX/1/1" xmlns:xsi="http://www.w3.org/2001/XMLSchema-instance" xsi:schemaLocation="http://www.topografix.com/GPX/1/1 http://www.topografix.com/GPX/1/1/gpx.xsd" version="1.1" creator="VisuGPX - https://www.visugpx.com">
  <metadata>
    <name>les gravières mairy</name>
    <desc><![CDATA[un vrai labyrinthe les gravières
]]></desc>
  </metadata>
  <trk>
    <name><![CDATA[Tracé actuel: 18 OCT 2020 12:58]]></name>
    <trkseg>
      <trkpt lat="49.63425" lon="4.98035">
        <ele>308.24</ele>
        <time>2020-10-18T10:58:43Z</time>
      </trkpt>
      <trkpt lat="49.63411" lon="4.98029">
        <ele>304.39</ele>
        <time>2020-10-18T10:58:59Z</time>
      </trkpt>
      <trkpt lat="49.63402" lon="4.98016">
        <ele>298.15</ele>
        <time>2020-10-18T10:59:16Z</time>
      </trkpt>
      <trkpt lat="49.63393" lon="4.97999">
        <ele>294.3</ele>
        <time>2020-10-18T10:59:32Z</time>
      </trkpt>
      <trkpt lat="49.63402" lon="4.97975">
        <ele>175.1</ele>
        <time>2020-10-18T10:59:51Z</time>
      </trkpt>
      <trkpt lat="49.63396" lon="4.9796">
        <ele>168.85</ele>
        <time>2020-10-18T11:00:05Z</time>
      </trkpt>
      <trkpt lat="49.63391" lon="4.97942">
        <ele>164.04</ele>
        <time>2020-10-18T11:00:21Z</time>
      </trkpt>
      <trkpt lat="49.63404" lon="4.97921">
        <ele>165</ele>
        <time>2020-10-18T11:00:40Z</time>
      </trkpt>
      <trkpt lat="49.63422" lon="4.97909">
        <ele>162.6</ele>
        <time>2020-10-18T11:00:56Z</time>
      </trkpt>
      <trkpt lat="49.63441" lon="4.97901">
        <ele>160.68</ele>
        <time>2020-10-18T11:01:18Z</time>
      </trkpt>
      <trkpt lat="49.63448" lon="4.97897">
        <ele>156.35</ele>
        <time>2020-10-18T11:01:27Z</time>
      </trkpt>
      <trkpt lat="49.63463" lon="4.97878">
        <ele>150.1</ele>
        <time>2020-10-18T11:01:47Z</time>
      </trkpt>
      <trkpt lat="49.63478" lon="4.97853">
        <ele>146.74</ele>
        <time>2020-10-18T11:02:09Z</time>
      </trkpt>
      <trkpt lat="49.63487" lon="4.97834">
        <ele>146.26</ele>
        <time>2020-10-18T11:02:25Z</time>
      </trkpt>
      <trkpt lat="49.63488" lon="4.97832">
        <ele>146.74</ele>
        <time>2020-10-18T11:02:26Z</time>
      </trkpt>
      <trkpt lat="49.63499" lon="4.9782">
        <ele>145.3</ele>
        <time>2020-10-18T11:02:39Z</time>
      </trkpt>
      <trkpt lat="49.63514" lon="4.97804">
        <ele>142.89</ele>
        <time>2020-10-18T11:02:57Z</time>
      </trkpt>
      <trkpt lat="49.6353" lon="4.97793">
        <ele>140.01</ele>
        <time>2020-10-18T11:03:15Z</time>
      </trkpt>
      <trkpt lat="49.63539" lon="4.97774">
        <ele>138.09</ele>
        <time>2020-10-18T11:03:30Z</time>
      </trkpt>
      <trkpt lat="49.63553" lon="4.97747">
        <ele>145.78</ele>
        <time>2020-10-18T11:03:49Z</time>
      </trkpt>
      <trkpt lat="49.63554" lon="4.97738">
        <ele>146.26</ele>
        <time>2020-10-18T11:03:54Z</time>
      </trkpt>
      <trkpt lat="49.63565" lon="4.977">
        <ele>149.62</ele>
        <time>2020-10-18T11:04:16Z</time>
      </trkpt>
      <trkpt lat="49.63577" lon="4.97686">
        <ele>149.62</ele>
        <time>2020-10-18T11:04:31Z</time>
      </trkpt>
      <trkpt lat="49.63591" lon="4.97674">
        <ele>155.39</ele>
        <time>2020-10-18T11:04:47Z</time>
      </trkpt>
      <trkpt lat="49.6361" lon="4.97667">
        <ele>159.72</ele>
        <time>2020-10-18T11:05:03Z</time>
      </trkpt>
      <trkpt lat="49.63618" lon="4.97669">
        <ele>158.27</ele>
        <time>2020-10-18T11:05:17Z</time>
      </trkpt>
      <trkpt lat="49.6362" lon="4.97672">
        <ele>158.27</ele>
        <time>2020-10-18T11:05:19Z</time>
      </trkpt>
      <trkpt lat="49.6363" lon="4.97683">
        <ele>157.31</ele>
        <time>2020-10-18T11:05:31Z</time>
      </trkpt>
      <trkpt lat="49.63655" lon="4.97705">
        <ele>157.31</ele>
        <time>2020-10-18T11:05:57Z</time>
      </trkpt>
      <trkpt lat="49.63675" lon="4.97726">
        <ele>157.79</ele>
        <time>2020-10-18T11:06:19Z</time>
      </trkpt>
      <trkpt lat="49.63694" lon="4.97741">
        <ele>160.2</ele>
        <time>2020-10-18T11:06:40Z</time>
      </trkpt>
      <trkpt lat="49.63713" lon="4.97755">
        <ele>161.16</ele>
        <time>2020-10-18T11:07:00Z</time>
      </trkpt>
      <trkpt lat="49.63733" lon="4.97772">
        <ele>160.2</ele>
        <time>2020-10-18T11:07:21Z</time>
      </trkpt>
      <trkpt lat="49.63753" lon="4.97783">
        <ele>158.27</ele>
        <time>2020-10-18T11:07:41Z</time>
      </trkpt>
      <trkpt lat="49.63772" lon="4.978">
        <ele>158.27</ele>
        <time>2020-10-18T11:08:00Z</time>
      </trkpt>
      <trkpt lat="49.63783" lon="4.97814">
        <ele>157.79</ele>
        <time>2020-10-18T11:08:15Z</time>
      </trkpt>
      <trkpt lat="49.63788" lon="4.97819">
        <ele>156.35</ele>
        <time>2020-10-18T11:08:33Z</time>
      </trkpt>
      <trkpt lat="49.63791" lon="4.97818">
        <ele>155.39</ele>
        <time>2020-10-18T11:08:45Z</time>
      </trkpt>
      <trkpt lat="49.63801" lon="4.97827">
        <ele>153.47</ele>
        <time>2020-10-18T11:09:03Z</time>
      </trkpt>
      <trkpt lat="49.63819" lon="4.97843">
        <ele>151.06</ele>
        <time>2020-10-18T11:09:22Z</time>
      </trkpt>
      <trkpt lat="49.63833" lon="4.97855">
        <ele>147.7</ele>
        <time>2020-10-18T11:09:38Z</time>
      </trkpt>
      <trkpt lat="49.63846" lon="4.9787">
        <ele>147.22</ele>
        <time>2020-10-18T11:09:53Z</time>
      </trkpt>
      <trkpt lat="49.6386" lon="4.97881">
        <ele>145.3</ele>
        <time>2020-10-18T11:10:08Z</time>
      </trkpt>
      <trkpt lat="49.63875" lon="4.97894">
        <ele>146.26</ele>
        <time>2020-10-18T11:10:24Z</time>
      </trkpt>
      <trkpt lat="49.63892" lon="4.97911">
        <ele>146.26</ele>
        <time>2020-10-18T11:10:43Z</time>
      </trkpt>
      <trkpt lat="49.63909" lon="4.97931">
        <ele>145.78</ele>
        <time>2020-10-18T11:11:01Z</time>
      </trkpt>
      <trkpt lat="49.63925" lon="4.97947">
        <ele>148.66</ele>
        <time>2020-10-18T11:11:20Z</time>
      </trkpt>
      <trkpt lat="49.63941" lon="4.97963">
        <ele>151.06</ele>
        <time>2020-10-18T11:11:39Z</time>
      </trkpt>
      <trkpt lat="49.63959" lon="4.97979">
        <ele>148.18</ele>
        <time>2020-10-18T11:11:59Z</time>
      </trkpt>
      <trkpt lat="49.63974" lon="4.97991">
        <ele>148.18</ele>
        <time>2020-10-18T11:12:17Z</time>
      </trkpt>
      <trkpt lat="49.63994" lon="4.98011">
        <ele>147.22</ele>
        <time>2020-10-18T11:12:37Z</time>
      </trkpt>
      <trkpt lat="49.64009" lon="4.98027">
        <ele>146.26</ele>
        <time>2020-10-18T11:12:54Z</time>
      </trkpt>
      <trkpt lat="49.64026" lon="4.98041">
        <ele>146.26</ele>
        <time>2020-10-18T11:13:15Z</time>
      </trkpt>
      <trkpt lat="49.64045" lon="4.98056">
        <ele>145.78</ele>
        <time>2020-10-18T11:13:36Z</time>
      </trkpt>
      <trkpt lat="49.64065" lon="4.98079">
        <ele>145.78</ele>
        <time>2020-10-18T11:13:57Z</time>
      </trkpt>
      <trkpt lat="49.64083" lon="4.98094">
        <ele>149.14</ele>
        <time>2020-10-18T11:14:17Z</time>
      </trkpt>
      <trkpt lat="49.641" lon="4.98107">
        <ele>147.7</ele>
        <time>2020-10-18T11:14:34Z</time>
      </trkpt>
      <trkpt lat="49.64123" lon="4.98128">
        <ele>144.34</ele>
        <time>2020-10-18T11:14:56Z</time>
      </trkpt>
      <trkpt lat="49.64131" lon="4.98136">
        <ele>144.82</ele>
        <time>2020-10-18T11:15:05Z</time>
      </trkpt>
      <trkpt lat="49.6415" lon="4.98158">
        <ele>147.7</ele>
        <time>2020-10-18T11:15:26Z</time>
      </trkpt>
      <trkpt lat="49.64169" lon="4.98174">
        <ele>147.7</ele>
        <time>2020-10-18T11:15:46Z</time>
      </trkpt>
      <trkpt lat="49.64187" lon="4.98193">
        <ele>148.66</ele>
        <time>2020-10-18T11:16:07Z</time>
      </trkpt>
      <trkpt lat="49.64203" lon="4.98207">
        <ele>147.22</ele>
        <time>2020-10-18T11:16:26Z</time>
      </trkpt>
      <trkpt lat="49.64223" lon="4.98226">
        <ele>146.74</ele>
        <time>2020-10-18T11:16:46Z</time>
      </trkpt>
      <trkpt lat="49.64242" lon="4.98242">
        <ele>148.18</ele>
        <time>2020-10-18T11:17:07Z</time>
      </trkpt>
      <trkpt lat="49.64263" lon="4.98261">
        <ele>150.58</ele>
        <time>2020-10-18T11:17:28Z</time>
      </trkpt>
      <trkpt lat="49.64268" lon="4.98266">
        <ele>151.06</ele>
        <time>2020-10-18T11:17:34Z</time>
      </trkpt>
      <trkpt lat="49.64287" lon="4.98284">
        <ele>152.03</ele>
        <time>2020-10-18T11:17:54Z</time>
      </trkpt>
      <trkpt lat="49.64305" lon="4.98297">
        <ele>151.54</ele>
        <time>2020-10-18T11:18:13Z</time>
      </trkpt>
      <trkpt lat="49.64319" lon="4.98308">
        <ele>150.1</ele>
        <time>2020-10-18T11:18:30Z</time>
      </trkpt>
      <trkpt lat="49.64344" lon="4.9833">
        <ele>147.22</ele>
        <time>2020-10-18T11:18:53Z</time>
      </trkpt>
      <trkpt lat="49.64368" lon="4.98348">
        <ele>148.66</ele>
        <time>2020-10-18T11:19:17Z</time>
      </trkpt>
      <trkpt lat="49.64385" lon="4.98361">
        <ele>149.62</ele>
        <time>2020-10-18T11:19:35Z</time>
      </trkpt>
      <trkpt lat="49.64399" lon="4.98373">
        <ele>149.62</ele>
        <time>2020-10-18T11:19:50Z</time>
      </trkpt>
      <trkpt lat="49.64419" lon="4.98386">
        <ele>149.14</ele>
        <time>2020-10-18T11:20:09Z</time>
      </trkpt>
      <trkpt lat="49.64434" lon="4.98395">
        <ele>150.58</ele>
        <time>2020-10-18T11:20:25Z</time>
      </trkpt>
      <trkpt lat="49.64452" lon="4.98407">
        <ele>151.54</ele>
        <time>2020-10-18T11:20:43Z</time>
      </trkpt>
      <trkpt lat="49.64471" lon="4.9842">
        <ele>151.54</ele>
        <time>2020-10-18T11:21:02Z</time>
      </trkpt>
      <trkpt lat="49.6449" lon="4.98433">
        <ele>149.62</ele>
        <time>2020-10-18T11:21:20Z</time>
      </trkpt>
      <trkpt lat="49.64511" lon="4.98444">
        <ele>147.22</ele>
        <time>2020-10-18T11:21:40Z</time>
      </trkpt>
      <trkpt lat="49.64536" lon="4.98457">
        <ele>146.26</ele>
        <time>2020-10-18T11:22:05Z</time>
      </trkpt>
      <trkpt lat="49.64556" lon="4.98467">
        <ele>146.74</ele>
        <time>2020-10-18T11:22:24Z</time>
      </trkpt>
      <trkpt lat="49.64578" lon="4.98481">
        <ele>148.18</ele>
        <time>2020-10-18T11:22:46Z</time>
      </trkpt>
      <trkpt lat="49.64599" lon="4.98492">
        <ele>150.58</ele>
        <time>2020-10-18T11:23:07Z</time>
      </trkpt>
      <trkpt lat="49.6462" lon="4.98504">
        <ele>152.51</ele>
        <time>2020-10-18T11:23:26Z</time>
      </trkpt>
      <trkpt lat="49.64643" lon="4.98517">
        <ele>151.06</ele>
        <time>2020-10-18T11:23:47Z</time>
      </trkpt>
      <trkpt lat="49.64668" lon="4.9853">
        <ele>148.66</ele>
        <time>2020-10-18T11:24:11Z</time>
      </trkpt>
      <trkpt lat="49.64689" lon="4.98541">
        <ele>146.74</ele>
        <time>2020-10-18T11:24:32Z</time>
      </trkpt>
      <trkpt lat="49.64713" lon="4.98553">
        <ele>146.26</ele>
        <time>2020-10-18T11:24:55Z</time>
      </trkpt>
      <trkpt lat="49.64734" lon="4.98567">
        <ele>149.14</ele>
        <time>2020-10-18T11:25:15Z</time>
      </trkpt>
      <trkpt lat="49.64757" lon="4.98579">
        <ele>147.7</ele>
        <time>2020-10-18T11:25:36Z</time>
      </trkpt>
      <trkpt lat="49.64766" lon="4.98585">
        <ele>146.74</ele>
        <time>2020-10-18T11:25:45Z</time>
      </trkpt>
      <trkpt lat="49.64792" lon="4.98598">
        <ele>146.74</ele>
        <time>2020-10-18T11:26:09Z</time>
      </trkpt>
      <trkpt lat="49.64805" lon="4.98605">
        <ele>148.18</ele>
        <time>2020-10-18T11:26:23Z</time>
      </trkpt>
      <trkpt lat="49.64826" lon="4.98617">
        <ele>147.7</ele>
        <time>2020-10-18T11:26:43Z</time>
      </trkpt>
      <trkpt lat="49.64847" lon="4.98628">
        <ele>145.3</ele>
        <time>2020-10-18T11:27:03Z</time>
      </trkpt>
      <trkpt lat="49.64874" lon="4.98649">
        <ele>146.74</ele>
        <time>2020-10-18T11:27:29Z</time>
      </trkpt>
      <trkpt lat="49.64898" lon="4.98667">
        <ele>145.78</ele>
        <time>2020-10-18T11:27:53Z</time>
      </trkpt>
      <trkpt lat="49.64917" lon="4.98678">
        <ele>144.82</ele>
        <time>2020-10-18T11:28:11Z</time>
      </trkpt>
      <trkpt lat="49.64939" lon="4.98692">
        <ele>145.3</ele>
        <time>2020-10-18T11:28:33Z</time>
      </trkpt>
      <trkpt lat="49.64959" lon="4.98709">
        <ele>142.89</ele>
        <time>2020-10-18T11:28:53Z</time>
      </trkpt>
      <trkpt lat="49.64981" lon="4.98725">
        <ele>138.57</ele>
        <time>2020-10-18T11:29:14Z</time>
      </trkpt>
      <trkpt lat="49.65003" lon="4.98745">
        <ele>139.05</ele>
        <time>2020-10-18T11:29:36Z</time>
      </trkpt>
      <trkpt lat="49.65025" lon="4.98767">
        <ele>140.01</ele>
        <time>2020-10-18T11:29:58Z</time>
      </trkpt>
      <trkpt lat="49.65044" lon="4.98786">
        <ele>141.93</ele>
        <time>2020-10-18T11:30:18Z</time>
      </trkpt>
      <trkpt lat="49.65066" lon="4.98807">
        <ele>142.89</ele>
        <time>2020-10-18T11:30:40Z</time>
      </trkpt>
      <trkpt lat="49.65091" lon="4.9883">
        <ele>141.45</ele>
        <time>2020-10-18T11:31:06Z</time>
      </trkpt>
      <trkpt lat="49.65109" lon="4.98849">
        <ele>140.97</ele>
        <time>2020-10-18T11:31:26Z</time>
      </trkpt>
      <trkpt lat="49.65126" lon="4.98869">
        <ele>138.09</ele>
        <time>2020-10-18T11:31:46Z</time>
      </trkpt>
      <trkpt lat="49.65128" lon="4.9887">
        <ele>137.61</ele>
        <time>2020-10-18T11:31:48Z</time>
      </trkpt>
      <trkpt lat="49.65135" lon="4.98876">
        <ele>135.68</ele>
        <time>2020-10-18T11:31:56Z</time>
      </trkpt>
      <trkpt lat="49.65137" lon="4.9888">
        <ele>134.72</ele>
        <time>2020-10-18T11:31:59Z</time>
      </trkpt>
      <trkpt lat="49.65154" lon="4.98895">
        <ele>130.4</ele>
        <time>2020-10-18T11:32:18Z</time>
      </trkpt>
      <trkpt lat="49.65172" lon="4.98914">
        <ele>131.84</ele>
        <time>2020-10-18T11:32:36Z</time>
      </trkpt>
      <trkpt lat="49.65188" lon="4.9893">
        <ele>132.8</ele>
        <time>2020-10-18T11:32:53Z</time>
      </trkpt>
      <trkpt lat="49.65205" lon="4.98946">
        <ele>129.92</ele>
        <time>2020-10-18T11:33:12Z</time>
      </trkpt>
      <trkpt lat="49.6522" lon="4.98958">
        <ele>131.84</ele>
        <time>2020-10-18T11:33:26Z</time>
      </trkpt>
      <trkpt lat="49.65241" lon="4.98972">
        <ele>131.84</ele>
        <time>2020-10-18T11:33:46Z</time>
      </trkpt>
      <trkpt lat="49.65262" lon="4.98991">
        <ele>131.36</ele>
        <time>2020-10-18T11:34:07Z</time>
      </trkpt>
      <trkpt lat="49.65283" lon="4.99007">
        <ele>133.76</ele>
        <time>2020-10-18T11:34:28Z</time>
      </trkpt>
      <trkpt lat="49.65299" lon="4.99031">
        <ele>137.61</ele>
        <time>2020-10-18T11:34:47Z</time>
      </trkpt>
      <trkpt lat="49.65318" lon="4.99049">
        <ele>135.2</ele>
        <time>2020-10-18T11:35:07Z</time>
      </trkpt>
      <trkpt lat="49.65319" lon="4.99052">
        <ele>135.68</ele>
        <time>2020-10-18T11:35:09Z</time>
      </trkpt>
      <trkpt lat="49.65328" lon="4.99084">
        <ele>137.61</ele>
        <time>2020-10-18T11:35:29Z</time>
      </trkpt>
      <trkpt lat="49.65338" lon="4.99112">
        <ele>140.01</ele>
        <time>2020-10-18T11:35:47Z</time>
      </trkpt>
      <trkpt lat="49.65349" lon="4.99135">
        <ele>141.45</ele>
        <time>2020-10-18T11:36:03Z</time>
      </trkpt>
      <trkpt lat="49.6535" lon="4.99136">
        <ele>140.97</ele>
        <time>2020-10-18T11:36:04Z</time>
      </trkpt>
      <trkpt lat="49.65363" lon="4.99157">
        <ele>140.49</ele>
        <time>2020-10-18T11:36:21Z</time>
      </trkpt>
      <trkpt lat="49.65371" lon="4.99173">
        <ele>140.01</ele>
        <time>2020-10-18T11:36:33Z</time>
      </trkpt>
      <trkpt lat="49.65369" lon="4.99183">
        <ele>140.49</ele>
        <time>2020-10-18T11:36:38Z</time>
      </trkpt>
      <trkpt lat="49.65366" lon="4.99192">
        <ele>140.97</ele>
        <time>2020-10-18T11:36:45Z</time>
      </trkpt>
      <trkpt lat="49.65371" lon="4.99195">
        <ele>141.45</ele>
        <time>2020-10-18T11:36:49Z</time>
      </trkpt>
      <trkpt lat="49.65373" lon="4.99196">
        <ele>141.45</ele>
        <time>2020-10-18T11:36:51Z</time>
      </trkpt>
      <trkpt lat="49.65386" lon="4.99192">
        <ele>144.34</ele>
        <time>2020-10-18T11:37:03Z</time>
      </trkpt>
      <trkpt lat="49.65407" lon="4.99215">
        <ele>143.85</ele>
        <time>2020-10-18T11:37:25Z</time>
      </trkpt>
      <trkpt lat="49.65424" lon="4.9924">
        <ele>142.89</ele>
        <time>2020-10-18T11:37:46Z</time>
      </trkpt>
      <trkpt lat="49.65442" lon="4.99267">
        <ele>139.05</ele>
        <time>2020-10-18T11:38:09Z</time>
      </trkpt>
      <trkpt lat="49.65446" lon="4.99274">
        <ele>139.53</ele>
        <time>2020-10-18T11:38:15Z</time>
      </trkpt>
      <trkpt lat="49.65465" lon="4.99285">
        <ele>141.45</ele>
        <time>2020-10-18T11:38:33Z</time>
      </trkpt>
      <trkpt lat="49.65479" lon="4.9926">
        <ele>147.22</ele>
        <time>2020-10-18T11:38:52Z</time>
      </trkpt>
      <trkpt lat="49.6549" lon="4.99226">
        <ele>148.66</ele>
        <time>2020-10-18T11:39:14Z</time>
      </trkpt>
      <trkpt lat="49.65496" lon="4.99201">
        <ele>147.7</ele>
        <time>2020-10-18T11:39:30Z</time>
      </trkpt>
      <trkpt lat="49.65512" lon="4.99206">
        <ele>146.74</ele>
        <time>2020-10-18T11:39:47Z</time>
      </trkpt>
      <trkpt lat="49.65534" lon="4.99218">
        <ele>147.22</ele>
        <time>2020-10-18T11:40:08Z</time>
      </trkpt>
      <trkpt lat="49.6555" lon="4.99231">
        <ele>148.66</ele>
        <time>2020-10-18T11:40:25Z</time>
      </trkpt>
      <trkpt lat="49.65551" lon="4.9923">
        <ele>149.14</ele>
        <time>2020-10-18T11:40:40Z</time>
      </trkpt>
      <trkpt lat="49.65552" lon="4.99228">
        <ele>149.62</ele>
        <time>2020-10-18T11:40:55Z</time>
      </trkpt>
      <trkpt lat="49.65553" lon="4.99227">
        <ele>149.14</ele>
        <time>2020-10-18T11:41:31Z</time>
      </trkpt>
      <trkpt lat="49.65553" lon="4.99226">
        <ele>149.62</ele>
        <time>2020-10-18T11:42:00Z</time>
      </trkpt>
      <trkpt lat="49.65552" lon="4.99225">
        <ele>150.58</ele>
        <time>2020-10-18T11:42:36Z</time>
      </trkpt>
      <trkpt lat="49.65552" lon="4.99226">
        <ele>151.54</ele>
        <time>2020-10-18T11:42:47Z</time>
      </trkpt>
      <trkpt lat="49.65552" lon="4.99227">
        <ele>152.03</ele>
        <time>2020-10-18T11:43:02Z</time>
      </trkpt>
      <trkpt lat="49.65553" lon="4.99226">
        <ele>152.51</ele>
        <time>2020-10-18T11:43:24Z</time>
      </trkpt>
      <trkpt lat="49.65553" lon="4.99227">
        <ele>152.99</ele>
        <time>2020-10-18T11:43:52Z</time>
      </trkpt>
      <trkpt lat="49.65553" lon="4.99228">
        <ele>152.51</ele>
        <time>2020-10-18T11:44:09Z</time>
      </trkpt>
      <trkpt lat="49.65555" lon="4.9923">
        <ele>151.54</ele>
        <time>2020-10-18T11:44:26Z</time>
      </trkpt>
      <trkpt lat="49.65561" lon="4.9925">
        <ele>150.58</ele>
        <time>2020-10-18T11:44:43Z</time>
      </trkpt>
      <trkpt lat="49.65558" lon="4.99261">
        <ele>151.06</ele>
        <time>2020-10-18T11:44:51Z</time>
      </trkpt>
      <trkpt lat="49.65541" lon="4.9929">
        <ele>151.06</ele>
        <time>2020-10-18T11:45:14Z</time>
      </trkpt>
      <trkpt lat="49.65535" lon="4.99299">
        <ele>151.06</ele>
        <time>2020-10-18T11:45:22Z</time>
      </trkpt>
      <trkpt lat="49.65517" lon="4.9933">
        <ele>150.1</ele>
        <time>2020-10-18T11:45:46Z</time>
      </trkpt>
      <trkpt lat="49.65497" lon="4.99363">
        <ele>149.62</ele>
        <time>2020-10-18T11:46:10Z</time>
      </trkpt>
      <trkpt lat="49.65481" lon="4.99389">
        <ele>149.62</ele>
        <time>2020-10-18T11:46:30Z</time>
      </trkpt>
      <trkpt lat="49.65469" lon="4.99412">
        <ele>149.14</ele>
        <time>2020-10-18T11:46:48Z</time>
      </trkpt>
      <trkpt lat="49.65452" lon="4.99438">
        <ele>149.14</ele>
        <time>2020-10-18T11:47:08Z</time>
      </trkpt>
      <trkpt lat="49.65435" lon="4.99465">
        <ele>150.1</ele>
        <time>2020-10-18T11:47:30Z</time>
      </trkpt>
      <trkpt lat="49.6542" lon="4.99491">
        <ele>148.66</ele>
        <time>2020-10-18T11:47:51Z</time>
      </trkpt>
      <trkpt lat="49.65404" lon="4.99516">
        <ele>146.74</ele>
        <time>2020-10-18T11:48:10Z</time>
      </trkpt>
      <trkpt lat="49.65391" lon="4.99539">
        <ele>145.78</ele>
        <time>2020-10-18T11:48:28Z</time>
      </trkpt>
      <trkpt lat="49.65378" lon="4.99562">
        <ele>145.3</ele>
        <time>2020-10-18T11:48:45Z</time>
      </trkpt>
      <trkpt lat="49.65362" lon="4.99593">
        <ele>143.85</ele>
        <time>2020-10-18T11:49:07Z</time>
      </trkpt>
      <trkpt lat="49.65351" lon="4.99618">
        <ele>142.89</ele>
        <time>2020-10-18T11:49:25Z</time>
      </trkpt>
      <trkpt lat="49.65342" lon="4.9964">
        <ele>141.93</ele>
        <time>2020-10-18T11:49:42Z</time>
      </trkpt>
      <trkpt lat="49.6533" lon="4.99664">
        <ele>141.93</ele>
        <time>2020-10-18T11:49:58Z</time>
      </trkpt>
      <trkpt lat="49.65318" lon="4.99691">
        <ele>140.49</ele>
        <time>2020-10-18T11:50:18Z</time>
      </trkpt>
      <trkpt lat="49.65307" lon="4.99718">
        <ele>139.05</ele>
        <time>2020-10-18T11:50:37Z</time>
      </trkpt>
      <trkpt lat="49.65293" lon="4.99748">
        <ele>138.57</ele>
        <time>2020-10-18T11:50:57Z</time>
      </trkpt>
      <trkpt lat="49.6528" lon="4.99776">
        <ele>137.61</ele>
        <time>2020-10-18T11:51:16Z</time>
      </trkpt>
      <trkpt lat="49.65269" lon="4.99804">
        <ele>139.05</ele>
        <time>2020-10-18T11:51:34Z</time>
      </trkpt>
      <trkpt lat="49.65255" lon="4.99832">
        <ele>139.53</ele>
        <time>2020-10-18T11:51:54Z</time>
      </trkpt>
      <trkpt lat="49.65244" lon="4.9985">
        <ele>139.05</ele>
        <time>2020-10-18T11:52:10Z</time>
      </trkpt>
      <trkpt lat="49.65226" lon="4.99876">
        <ele>144.34</ele>
        <time>2020-10-18T11:52:30Z</time>
      </trkpt>
      <trkpt lat="49.65224" lon="4.99896">
        <ele>149.14</ele>
        <time>2020-10-18T11:52:45Z</time>
      </trkpt>
      <trkpt lat="49.65244" lon="4.99917">
        <ele>149.14</ele>
        <time>2020-10-18T11:53:05Z</time>
      </trkpt>
      <trkpt lat="49.65261" lon="4.99939">
        <ele>148.66</ele>
        <time>2020-10-18T11:53:25Z</time>
      </trkpt>
      <trkpt lat="49.65278" lon="4.99955">
        <ele>144.82</ele>
        <time>2020-10-18T11:53:44Z</time>
      </trkpt>
      <trkpt lat="49.65292" lon="4.99974">
        <ele>142.41</ele>
        <time>2020-10-18T11:54:01Z</time>
      </trkpt>
      <trkpt lat="49.65308" lon="4.99995">
        <ele>144.82</ele>
        <time>2020-10-18T11:54:19Z</time>
      </trkpt>
      <trkpt lat="49.65325" lon="5.00018">
        <ele>145.3</ele>
        <time>2020-10-18T11:54:38Z</time>
      </trkpt>
      <trkpt lat="49.65347" lon="5.00042">
        <ele>148.66</ele>
        <time>2020-10-18T11:54:58Z</time>
      </trkpt>
      <trkpt lat="49.65364" lon="5.00064">
        <ele>148.18</ele>
        <time>2020-10-18T11:55:19Z</time>
      </trkpt>
      <trkpt lat="49.65383" lon="5.00082">
        <ele>149.14</ele>
        <time>2020-10-18T11:55:37Z</time>
      </trkpt>
      <trkpt lat="49.65395" lon="5.00094">
        <ele>148.18</ele>
        <time>2020-10-18T11:55:54Z</time>
      </trkpt>
      <trkpt lat="49.65397" lon="5.00104">
        <ele>148.18</ele>
        <time>2020-10-18T11:55:59Z</time>
      </trkpt>
      <trkpt lat="49.654" lon="5.00112">
        <ele>147.7</ele>
        <time>2020-10-18T11:56:04Z</time>
      </trkpt>
      <trkpt lat="49.65414" lon="5.00145">
        <ele>146.26</ele>
        <time>2020-10-18T11:56:25Z</time>
      </trkpt>
      <trkpt lat="49.6542" lon="5.00158">
        <ele>148.18</ele>
        <time>2020-10-18T11:56:34Z</time>
      </trkpt>
      <trkpt lat="49.65434" lon="5.00191">
        <ele>147.22</ele>
        <time>2020-10-18T11:56:55Z</time>
      </trkpt>
      <trkpt lat="49.6545" lon="5.00226">
        <ele>145.3</ele>
        <time>2020-10-18T11:57:18Z</time>
      </trkpt>
      <trkpt lat="49.65467" lon="5.00263">
        <ele>145.78</ele>
        <time>2020-10-18T11:57:42Z</time>
      </trkpt>
      <trkpt lat="49.65484" lon="5.003">
        <ele>147.7</ele>
        <time>2020-10-18T11:58:08Z</time>
      </trkpt>
      <trkpt lat="49.65498" lon="5.00333">
        <ele>147.22</ele>
        <time>2020-10-18T11:58:30Z</time>
      </trkpt>
      <trkpt lat="49.65514" lon="5.00367">
        <ele>147.7</ele>
        <time>2020-10-18T11:58:53Z</time>
      </trkpt>
      <trkpt lat="49.65529" lon="5.00397">
        <ele>147.22</ele>
        <time>2020-10-18T11:59:15Z</time>
      </trkpt>
      <trkpt lat="49.65542" lon="5.00426">
        <ele>147.22</ele>
        <time>2020-10-18T11:59:35Z</time>
      </trkpt>
      <trkpt lat="49.65558" lon="5.0046">
        <ele>147.22</ele>
        <time>2020-10-18T11:59:58Z</time>
      </trkpt>
      <trkpt lat="49.65573" lon="5.00494">
        <ele>148.18</ele>
        <time>2020-10-18T12:00:20Z</time>
      </trkpt>
      <trkpt lat="49.65586" lon="5.00523">
        <ele>150.1</ele>
        <time>2020-10-18T12:00:40Z</time>
      </trkpt>
      <trkpt lat="49.65601" lon="5.00553">
        <ele>151.06</ele>
        <time>2020-10-18T12:01:01Z</time>
      </trkpt>
      <trkpt lat="49.65614" lon="5.00586">
        <ele>151.54</ele>
        <time>2020-10-18T12:01:22Z</time>
      </trkpt>
      <trkpt lat="49.65627" lon="5.00623">
        <ele>152.51</ele>
        <time>2020-10-18T12:01:46Z</time>
      </trkpt>
      <trkpt lat="49.65635" lon="5.00661">
        <ele>151.06</ele>
        <time>2020-10-18T12:02:08Z</time>
      </trkpt>
      <trkpt lat="49.65641" lon="5.00705">
        <ele>152.51</ele>
        <time>2020-10-18T12:02:33Z</time>
      </trkpt>
      <trkpt lat="49.65646" lon="5.00741">
        <ele>153.47</ele>
        <time>2020-10-18T12:02:55Z</time>
      </trkpt>
      <trkpt lat="49.65651" lon="5.00778">
        <ele>154.43</ele>
        <time>2020-10-18T12:03:16Z</time>
      </trkpt>
      <trkpt lat="49.65655" lon="5.00814">
        <ele>153.47</ele>
        <time>2020-10-18T12:03:35Z</time>
      </trkpt>
      <trkpt lat="49.65663" lon="5.00852">
        <ele>151.54</ele>
        <time>2020-10-18T12:03:58Z</time>
      </trkpt>
      <trkpt lat="49.65665" lon="5.00895">
        <ele>152.51</ele>
        <time>2020-10-18T12:04:20Z</time>
      </trkpt>
      <trkpt lat="49.65671" lon="5.00929">
        <ele>152.99</ele>
        <time>2020-10-18T12:04:41Z</time>
      </trkpt>
      <trkpt lat="49.65674" lon="5.00961">
        <ele>152.99</ele>
        <time>2020-10-18T12:04:59Z</time>
      </trkpt>
      <trkpt lat="49.65677" lon="5.00995">
        <ele>154.91</ele>
        <time>2020-10-18T12:05:19Z</time>
      </trkpt>
      <trkpt lat="49.65681" lon="5.01029">
        <ele>153.95</ele>
        <time>2020-10-18T12:05:37Z</time>
      </trkpt>
      <trkpt lat="49.65683" lon="5.01058">
        <ele>154.43</ele>
        <time>2020-10-18T12:05:54Z</time>
      </trkpt>
      <trkpt lat="49.65686" lon="5.01099">
        <ele>154.43</ele>
        <time>2020-10-18T12:06:16Z</time>
      </trkpt>
      <trkpt lat="49.65689" lon="5.01135">
        <ele>154.91</ele>
        <time>2020-10-18T12:06:37Z</time>
      </trkpt>
      <trkpt lat="49.65693" lon="5.01172">
        <ele>153.95</ele>
        <time>2020-10-18T12:06:58Z</time>
      </trkpt>
      <trkpt lat="49.65695" lon="5.01205">
        <ele>153.95</ele>
        <time>2020-10-18T12:07:17Z</time>
      </trkpt>
      <trkpt lat="49.65695" lon="5.01239">
        <ele>152.99</ele>
        <time>2020-10-18T12:07:36Z</time>
      </trkpt>
      <trkpt lat="49.657" lon="5.01281">
        <ele>153.47</ele>
        <time>2020-10-18T12:07:58Z</time>
      </trkpt>
      <trkpt lat="49.65702" lon="5.01318">
        <ele>157.31</ele>
        <time>2020-10-18T12:08:19Z</time>
      </trkpt>
      <trkpt lat="49.65705" lon="5.01355">
        <ele>159.72</ele>
        <time>2020-10-18T12:08:40Z</time>
      </trkpt>
      <trkpt lat="49.6571" lon="5.01393">
        <ele>158.27</ele>
        <time>2020-10-18T12:09:02Z</time>
      </trkpt>
      <trkpt lat="49.65715" lon="5.01429">
        <ele>154.91</ele>
        <time>2020-10-18T12:09:23Z</time>
      </trkpt>
      <trkpt lat="49.65724" lon="5.01444">
        <ele>155.87</ele>
        <time>2020-10-18T12:09:34Z</time>
      </trkpt>
      <trkpt lat="49.65729" lon="5.01471">
        <ele>155.39</ele>
        <time>2020-10-18T12:09:51Z</time>
      </trkpt>
      <trkpt lat="49.65736" lon="5.01507">
        <ele>154.91</ele>
        <time>2020-10-18T12:10:12Z</time>
      </trkpt>
      <trkpt lat="49.65743" lon="5.01538">
        <ele>153.47</ele>
        <time>2020-10-18T12:10:31Z</time>
      </trkpt>
      <trkpt lat="49.65753" lon="5.01569">
        <ele>152.51</ele>
        <time>2020-10-18T12:10:50Z</time>
      </trkpt>
      <trkpt lat="49.65763" lon="5.01598">
        <ele>152.03</ele>
        <time>2020-10-18T12:11:08Z</time>
      </trkpt>
      <trkpt lat="49.6577" lon="5.01597">
        <ele>150.58</ele>
        <time>2020-10-18T12:11:23Z</time>
      </trkpt>
      <trkpt lat="49.65769" lon="5.01598">
        <ele>152.03</ele>
        <time>2020-10-18T12:11:42Z</time>
      </trkpt>
      <trkpt lat="49.6577" lon="5.01598">
        <ele>154.43</ele>
        <time>2020-10-18T12:12:13Z</time>
      </trkpt>
      <trkpt lat="49.65771" lon="5.01598">
        <ele>154.43</ele>
        <time>2020-10-18T12:12:42Z</time>
      </trkpt>
      <trkpt lat="49.65771" lon="5.01598">
        <ele>154.43</ele>
        <time>2020-10-18T12:13:06Z</time>
      </trkpt>
      <trkpt lat="49.6577" lon="5.01597">
        <ele>154.43</ele>
        <time>2020-10-18T12:13:24Z</time>
      </trkpt>
      <trkpt lat="49.6577" lon="5.01598">
        <ele>154.43</ele>
        <time>2020-10-18T12:13:39Z</time>
      </trkpt>
      <trkpt lat="49.65771" lon="5.016">
        <ele>153.47</ele>
        <time>2020-10-18T12:13:56Z</time>
      </trkpt>
      <trkpt lat="49.65777" lon="5.01619">
        <ele>152.03</ele>
        <time>2020-10-18T12:14:10Z</time>
      </trkpt>
      <trkpt lat="49.65775" lon="5.01648">
        <ele>151.54</ele>
        <time>2020-10-18T12:14:26Z</time>
      </trkpt>
      <trkpt lat="49.65756" lon="5.01667">
        <ele>153.47</ele>
        <time>2020-10-18T12:14:45Z</time>
      </trkpt>
      <trkpt lat="49.6573" lon="5.01689">
        <ele>154.43</ele>
        <time>2020-10-18T12:15:10Z</time>
      </trkpt>
      <trkpt lat="49.65711" lon="5.01705">
        <ele>154.43</ele>
        <time>2020-10-18T12:15:28Z</time>
      </trkpt>
      <trkpt lat="49.65687" lon="5.01723">
        <ele>154.43</ele>
        <time>2020-10-18T12:15:51Z</time>
      </trkpt>
      <trkpt lat="49.65665" lon="5.01742">
        <ele>154.91</ele>
        <time>2020-10-18T12:16:12Z</time>
      </trkpt>
      <trkpt lat="49.65644" lon="5.0176">
        <ele>154.43</ele>
        <time>2020-10-18T12:16:33Z</time>
      </trkpt>
      <trkpt lat="49.65626" lon="5.01779">
        <ele>153.95</ele>
        <time>2020-10-18T12:16:52Z</time>
      </trkpt>
      <trkpt lat="49.65601" lon="5.01799">
        <ele>153.95</ele>
        <time>2020-10-18T12:17:16Z</time>
      </trkpt>
      <trkpt lat="49.65575" lon="5.01821">
        <ele>153.47</ele>
        <time>2020-10-18T12:17:41Z</time>
      </trkpt>
      <trkpt lat="49.65557" lon="5.01847">
        <ele>153.95</ele>
        <time>2020-10-18T12:18:02Z</time>
      </trkpt>
      <trkpt lat="49.6555" lon="5.01881">
        <ele>153.47</ele>
        <time>2020-10-18T12:18:21Z</time>
      </trkpt>
      <trkpt lat="49.65551" lon="5.01903">
        <ele>152.99</ele>
        <time>2020-10-18T12:18:33Z</time>
      </trkpt>
      <trkpt lat="49.65545" lon="5.01941">
        <ele>152.03</ele>
        <time>2020-10-18T12:18:54Z</time>
      </trkpt>
      <trkpt lat="49.6554" lon="5.01973">
        <ele>151.54</ele>
        <time>2020-10-18T12:19:13Z</time>
      </trkpt>
      <trkpt lat="49.65532" lon="5.0201">
        <ele>152.03</ele>
        <time>2020-10-18T12:19:35Z</time>
      </trkpt>
      <trkpt lat="49.65523" lon="5.02043">
        <ele>153.47</ele>
        <time>2020-10-18T12:19:53Z</time>
      </trkpt>
      <trkpt lat="49.65517" lon="5.02077">
        <ele>153.47</ele>
        <time>2020-10-18T12:20:12Z</time>
      </trkpt>
      <trkpt lat="49.6551" lon="5.02112">
        <ele>153.47</ele>
        <time>2020-10-18T12:20:32Z</time>
      </trkpt>
      <trkpt lat="49.65503" lon="5.02146">
        <ele>153.47</ele>
        <time>2020-10-18T12:20:52Z</time>
      </trkpt>
      <trkpt lat="49.65493" lon="5.02172">
        <ele>153.47</ele>
        <time>2020-10-18T12:21:09Z</time>
      </trkpt>
      <trkpt lat="49.65485" lon="5.02204">
        <ele>152.99</ele>
        <time>2020-10-18T12:21:28Z</time>
      </trkpt>
      <trkpt lat="49.65475" lon="5.02235">
        <ele>152.03</ele>
        <time>2020-10-18T12:21:47Z</time>
      </trkpt>
      <trkpt lat="49.65467" lon="5.02264">
        <ele>152.99</ele>
        <time>2020-10-18T12:22:05Z</time>
      </trkpt>
      <trkpt lat="49.65457" lon="5.02294">
        <ele>152.03</ele>
        <time>2020-10-18T12:22:25Z</time>
      </trkpt>
      <trkpt lat="49.65445" lon="5.02325">
        <ele>152.03</ele>
        <time>2020-10-18T12:22:45Z</time>
      </trkpt>
      <trkpt lat="49.65434" lon="5.02353">
        <ele>152.03</ele>
        <time>2020-10-18T12:23:03Z</time>
      </trkpt>
      <trkpt lat="49.65425" lon="5.02382">
        <ele>151.06</ele>
        <time>2020-10-18T12:23:21Z</time>
      </trkpt>
      <trkpt lat="49.65413" lon="5.02413">
        <ele>152.99</ele>
        <time>2020-10-18T12:23:41Z</time>
      </trkpt>
      <trkpt lat="49.65403" lon="5.02443">
        <ele>153.47</ele>
        <time>2020-10-18T12:24:01Z</time>
      </trkpt>
      <trkpt lat="49.65392" lon="5.02473">
        <ele>154.43</ele>
        <time>2020-10-18T12:24:20Z</time>
      </trkpt>
      <trkpt lat="49.65383" lon="5.02505">
        <ele>153.95</ele>
        <time>2020-10-18T12:24:40Z</time>
      </trkpt>
      <trkpt lat="49.65382" lon="5.02543">
        <ele>154.91</ele>
        <time>2020-10-18T12:25:02Z</time>
      </trkpt>
      <trkpt lat="49.65382" lon="5.02577">
        <ele>154.43</ele>
        <time>2020-10-18T12:25:21Z</time>
      </trkpt>
      <trkpt lat="49.65381" lon="5.02609">
        <ele>154.91</ele>
        <time>2020-10-18T12:25:39Z</time>
      </trkpt>
      <trkpt lat="49.65378" lon="5.02646">
        <ele>156.35</ele>
        <time>2020-10-18T12:25:59Z</time>
      </trkpt>
      <trkpt lat="49.65373" lon="5.02684">
        <ele>153.95</ele>
        <time>2020-10-18T12:26:21Z</time>
      </trkpt>
      <trkpt lat="49.6537" lon="5.02722">
        <ele>153.47</ele>
        <time>2020-10-18T12:26:41Z</time>
      </trkpt>
      <trkpt lat="49.65366" lon="5.02756">
        <ele>153.95</ele>
        <time>2020-10-18T12:27:00Z</time>
      </trkpt>
      <trkpt lat="49.65364" lon="5.02796">
        <ele>155.39</ele>
        <time>2020-10-18T12:27:22Z</time>
      </trkpt>
      <trkpt lat="49.65358" lon="5.02828">
        <ele>155.39</ele>
        <time>2020-10-18T12:27:40Z</time>
      </trkpt>
      <trkpt lat="49.65355" lon="5.02861">
        <ele>155.39</ele>
        <time>2020-10-18T12:27:58Z</time>
      </trkpt>
      <trkpt lat="49.65351" lon="5.02896">
        <ele>153.95</ele>
        <time>2020-10-18T12:28:19Z</time>
      </trkpt>
      <trkpt lat="49.65347" lon="5.02925">
        <ele>153.95</ele>
        <time>2020-10-18T12:28:36Z</time>
      </trkpt>
      <trkpt lat="49.65342" lon="5.02962">
        <ele>154.43</ele>
        <time>2020-10-18T12:28:56Z</time>
      </trkpt>
      <trkpt lat="49.65335" lon="5.02994">
        <ele>153.47</ele>
        <time>2020-10-18T12:29:15Z</time>
      </trkpt>
      <trkpt lat="49.65326" lon="5.03008">
        <ele>153.95</ele>
        <time>2020-10-18T12:29:26Z</time>
      </trkpt>
      <trkpt lat="49.65305" lon="5.03028">
        <ele>153.47</ele>
        <time>2020-10-18T12:29:47Z</time>
      </trkpt>
      <trkpt lat="49.65284" lon="5.03049">
        <ele>152.51</ele>
        <time>2020-10-18T12:30:08Z</time>
      </trkpt>
      <trkpt lat="49.65264" lon="5.03063">
        <ele>151.54</ele>
        <time>2020-10-18T12:30:27Z</time>
      </trkpt>
      <trkpt lat="49.65259" lon="5.03066">
        <ele>151.54</ele>
        <time>2020-10-18T12:30:32Z</time>
      </trkpt>
      <trkpt lat="49.65242" lon="5.03105">
        <ele>152.51</ele>
        <time>2020-10-18T12:30:56Z</time>
      </trkpt>
      <trkpt lat="49.65239" lon="5.03123">
        <ele>151.54</ele>
        <time>2020-10-18T12:31:13Z</time>
      </trkpt>
      <trkpt lat="49.65238" lon="5.03095">
        <ele>152.51</ele>
        <time>2020-10-18T12:31:32Z</time>
      </trkpt>
      <trkpt lat="49.65237" lon="5.03098">
        <ele>152.03</ele>
        <time>2020-10-18T12:31:44Z</time>
      </trkpt>
      <trkpt lat="49.65235" lon="5.03101">
        <ele>152.51</ele>
        <time>2020-10-18T12:31:58Z</time>
      </trkpt>
      <trkpt lat="49.65235" lon="5.03101">
        <ele>152.99</ele>
        <time>2020-10-18T12:32:17Z</time>
      </trkpt>
      <trkpt lat="49.65238" lon="5.03109">
        <ele>152.51</ele>
        <time>2020-10-18T12:32:22Z</time>
      </trkpt>
      <trkpt lat="49.65237" lon="5.0315">
        <ele>149.62</ele>
        <time>2020-10-18T12:32:43Z</time>
      </trkpt>
      <trkpt lat="49.65237" lon="5.03157">
        <ele>148.66</ele>
        <time>2020-10-18T12:32:47Z</time>
      </trkpt>
      <trkpt lat="49.65236" lon="5.03164">
        <ele>147.7</ele>
        <time>2020-10-18T12:32:52Z</time>
      </trkpt>
      <trkpt lat="49.65233" lon="5.03201">
        <ele>147.7</ele>
        <time>2020-10-18T12:33:12Z</time>
      </trkpt>
      <trkpt lat="49.6523" lon="5.03232">
        <ele>149.62</ele>
        <time>2020-10-18T12:33:30Z</time>
      </trkpt>
      <trkpt lat="49.65224" lon="5.0327">
        <ele>150.1</ele>
        <time>2020-10-18T12:33:50Z</time>
      </trkpt>
      <trkpt lat="49.65221" lon="5.03302">
        <ele>149.62</ele>
        <time>2020-10-18T12:34:09Z</time>
      </trkpt>
      <trkpt lat="49.65212" lon="5.03337">
        <ele>152.99</ele>
        <time>2020-10-18T12:34:29Z</time>
      </trkpt>
      <trkpt lat="49.65208" lon="5.0335">
        <ele>152.99</ele>
        <time>2020-10-18T12:34:44Z</time>
      </trkpt>
      <trkpt lat="49.65212" lon="5.03359">
        <ele>152.99</ele>
        <time>2020-10-18T12:35:01Z</time>
      </trkpt>
      <trkpt lat="49.6521" lon="5.03355">
        <ele>152.51</ele>
        <time>2020-10-18T12:35:19Z</time>
      </trkpt>
      <trkpt lat="49.65206" lon="5.0335">
        <ele>153.95</ele>
        <time>2020-10-18T12:35:29Z</time>
      </trkpt>
      <trkpt lat="49.65199" lon="5.03349">
        <ele>154.43</ele>
        <time>2020-10-18T12:35:35Z</time>
      </trkpt>
      <trkpt lat="49.65177" lon="5.03348">
        <ele>156.83</ele>
        <time>2020-10-18T12:35:55Z</time>
      </trkpt>
      <trkpt lat="49.65148" lon="5.03339">
        <ele>157.79</ele>
        <time>2020-10-18T12:36:18Z</time>
      </trkpt>
      <trkpt lat="49.65122" lon="5.03333">
        <ele>157.79</ele>
        <time>2020-10-18T12:36:40Z</time>
      </trkpt>
      <trkpt lat="49.65096" lon="5.03328">
        <ele>158.27</ele>
        <time>2020-10-18T12:37:02Z</time>
      </trkpt>
      <trkpt lat="49.65074" lon="5.03323">
        <ele>156.83</ele>
        <time>2020-10-18T12:37:21Z</time>
      </trkpt>
      <trkpt lat="49.65063" lon="5.03317">
        <ele>155.39</ele>
        <time>2020-10-18T12:37:32Z</time>
      </trkpt>
      <trkpt lat="49.65037" lon="5.03309">
        <ele>154.43</ele>
        <time>2020-10-18T12:37:55Z</time>
      </trkpt>
      <trkpt lat="49.65015" lon="5.03305">
        <ele>152.51</ele>
        <time>2020-10-18T12:38:13Z</time>
      </trkpt>
      <trkpt lat="49.64991" lon="5.03299">
        <ele>152.51</ele>
        <time>2020-10-18T12:38:33Z</time>
      </trkpt>
      <trkpt lat="49.64972" lon="5.03293">
        <ele>152.03</ele>
        <time>2020-10-18T12:38:51Z</time>
      </trkpt>
      <trkpt lat="49.64944" lon="5.03288">
        <ele>153.95</ele>
        <time>2020-10-18T12:39:15Z</time>
      </trkpt>
      <trkpt lat="49.64918" lon="5.03282">
        <ele>151.54</ele>
        <time>2020-10-18T12:39:37Z</time>
      </trkpt>
      <trkpt lat="49.64895" lon="5.0328">
        <ele>149.62</ele>
        <time>2020-10-18T12:39:56Z</time>
      </trkpt>
      <trkpt lat="49.64872" lon="5.03272">
        <ele>149.14</ele>
        <time>2020-10-18T12:40:15Z</time>
      </trkpt>
      <trkpt lat="49.6485" lon="5.03266">
        <ele>147.7</ele>
        <time>2020-10-18T12:40:35Z</time>
      </trkpt>
      <trkpt lat="49.64826" lon="5.03264">
        <ele>147.22</ele>
        <time>2020-10-18T12:40:55Z</time>
      </trkpt>
      <trkpt lat="49.64818" lon="5.03262">
        <ele>147.22</ele>
        <time>2020-10-18T12:41:02Z</time>
      </trkpt>
      <trkpt lat="49.64812" lon="5.03259">
        <ele>147.22</ele>
        <time>2020-10-18T12:41:08Z</time>
      </trkpt>
      <trkpt lat="49.64786" lon="5.03256">
        <ele>146.74</ele>
        <time>2020-10-18T12:41:30Z</time>
      </trkpt>
      <trkpt lat="49.64765" lon="5.0325">
        <ele>147.22</ele>
        <time>2020-10-18T12:41:48Z</time>
      </trkpt>
      <trkpt lat="49.64745" lon="5.03247">
        <ele>146.74</ele>
        <time>2020-10-18T12:42:06Z</time>
      </trkpt>
      <trkpt lat="49.64722" lon="5.03241">
        <ele>147.22</ele>
        <time>2020-10-18T12:42:25Z</time>
      </trkpt>
      <trkpt lat="49.64702" lon="5.03234">
        <ele>147.22</ele>
        <time>2020-10-18T12:42:43Z</time>
      </trkpt>
      <trkpt lat="49.64681" lon="5.03228">
        <ele>148.18</ele>
        <time>2020-10-18T12:43:01Z</time>
      </trkpt>
      <trkpt lat="49.64655" lon="5.03221">
        <ele>148.18</ele>
        <time>2020-10-18T12:43:23Z</time>
      </trkpt>
      <trkpt lat="49.64633" lon="5.03214">
        <ele>146.74</ele>
        <time>2020-10-18T12:43:44Z</time>
      </trkpt>
      <trkpt lat="49.64629" lon="5.03212">
        <ele>146.74</ele>
        <time>2020-10-18T12:43:49Z</time>
      </trkpt>
      <trkpt lat="49.64626" lon="5.0321">
        <ele>149.14</ele>
        <time>2020-10-18T12:44:03Z</time>
      </trkpt>
      <trkpt lat="49.64623" lon="5.03208">
        <ele>150.1</ele>
        <time>2020-10-18T12:44:21Z</time>
      </trkpt>
      <trkpt lat="49.64623" lon="5.03204">
        <ele>151.54</ele>
        <time>2020-10-18T12:44:44Z</time>
      </trkpt>
      <trkpt lat="49.64626" lon="5.03182">
        <ele>152.03</ele>
        <time>2020-10-18T12:45:00Z</time>
      </trkpt>
      <trkpt lat="49.64628" lon="5.03176">
        <ele>152.51</ele>
        <time>2020-10-18T12:45:04Z</time>
      </trkpt>
      <trkpt lat="49.64625" lon="5.03154">
        <ele>153.95</ele>
        <time>2020-10-18T12:45:23Z</time>
      </trkpt>
      <trkpt lat="49.64625" lon="5.03153">
        <ele>153.95</ele>
        <time>2020-10-18T12:45:40Z</time>
      </trkpt>
      <trkpt lat="49.64625" lon="5.03154">
        <ele>153.95</ele>
        <time>2020-10-18T12:45:57Z</time>
      </trkpt>
      <trkpt lat="49.64625" lon="5.03153">
        <ele>152.99</ele>
        <time>2020-10-18T12:46:25Z</time>
      </trkpt>
      <trkpt lat="49.64625" lon="5.03153">
        <ele>152.51</ele>
        <time>2020-10-18T12:46:47Z</time>
      </trkpt>
      <trkpt lat="49.64625" lon="5.03152">
        <ele>152.03</ele>
        <time>2020-10-18T12:47:12Z</time>
      </trkpt>
      <trkpt lat="49.64628" lon="5.03149">
        <ele>151.54</ele>
        <time>2020-10-18T12:47:30Z</time>
      </trkpt>
      <trkpt lat="49.64631" lon="5.03138">
        <ele>151.54</ele>
        <time>2020-10-18T12:47:38Z</time>
      </trkpt>
      <trkpt lat="49.64634" lon="5.0311">
        <ele>150.58</ele>
        <time>2020-10-18T12:47:55Z</time>
      </trkpt>
      <trkpt lat="49.64637" lon="5.03083">
        <ele>150.58</ele>
        <time>2020-10-18T12:48:12Z</time>
      </trkpt>
      <trkpt lat="49.6464" lon="5.03065">
        <ele>150.1</ele>
        <time>2020-10-18T12:48:29Z</time>
      </trkpt>
      <trkpt lat="49.6464" lon="5.03066">
        <ele>148.66</ele>
        <time>2020-10-18T12:48:47Z</time>
      </trkpt>
      <trkpt lat="49.64641" lon="5.03063">
        <ele>149.14</ele>
        <time>2020-10-18T12:49:12Z</time>
      </trkpt>
      <trkpt lat="49.6464" lon="5.03062">
        <ele>149.62</ele>
        <time>2020-10-18T12:49:30Z</time>
      </trkpt>
      <trkpt lat="49.6464" lon="5.03065">
        <ele>150.1</ele>
        <time>2020-10-18T12:49:34Z</time>
      </trkpt>
      <trkpt lat="49.64638" lon="5.03084">
        <ele>150.58</ele>
        <time>2020-10-18T12:49:46Z</time>
      </trkpt>
      <trkpt lat="49.64638" lon="5.03094">
        <ele>150.1</ele>
        <time>2020-10-18T12:49:52Z</time>
      </trkpt>
      <trkpt lat="49.64636" lon="5.03111">
        <ele>150.1</ele>
        <time>2020-10-18T12:50:03Z</time>
      </trkpt>
      <trkpt lat="49.64637" lon="5.03124">
        <ele>149.62</ele>
        <time>2020-10-18T12:50:11Z</time>
      </trkpt>
      <trkpt lat="49.64634" lon="5.03135">
        <ele>150.1</ele>
        <time>2020-10-18T12:50:18Z</time>
      </trkpt>
      <trkpt lat="49.64629" lon="5.03163">
        <ele>150.58</ele>
        <time>2020-10-18T12:50:36Z</time>
      </trkpt>
      <trkpt lat="49.64626" lon="5.03175">
        <ele>150.1</ele>
        <time>2020-10-18T12:50:45Z</time>
      </trkpt>
      <trkpt lat="49.64626" lon="5.0318">
        <ele>150.1</ele>
        <time>2020-10-18T12:50:48Z</time>
      </trkpt>
      <trkpt lat="49.64624" lon="5.03206">
        <ele>150.58</ele>
        <time>2020-10-18T12:51:04Z</time>
      </trkpt>
      <trkpt lat="49.64622" lon="5.03212">
        <ele>150.1</ele>
        <time>2020-10-18T12:51:08Z</time>
      </trkpt>
      <trkpt lat="49.64622" lon="5.03239">
        <ele>151.06</ele>
        <time>2020-10-18T12:51:25Z</time>
      </trkpt>
      <trkpt lat="49.64617" lon="5.03277">
        <ele>152.99</ele>
        <time>2020-10-18T12:51:47Z</time>
      </trkpt>
      <trkpt lat="49.64612" lon="5.03309">
        <ele>152.99</ele>
        <time>2020-10-18T12:52:05Z</time>
      </trkpt>
      <trkpt lat="49.6461" lon="5.03346">
        <ele>153.47</ele>
        <time>2020-10-18T12:52:26Z</time>
      </trkpt>
      <trkpt lat="49.64606" lon="5.03381">
        <ele>153.47</ele>
        <time>2020-10-18T12:52:46Z</time>
      </trkpt>
      <trkpt lat="49.64604" lon="5.03413">
        <ele>154.43</ele>
        <time>2020-10-18T12:53:04Z</time>
      </trkpt>
      <trkpt lat="49.64601" lon="5.03448">
        <ele>155.87</ele>
        <time>2020-10-18T12:53:24Z</time>
      </trkpt>
      <trkpt lat="49.64598" lon="5.03482">
        <ele>156.35</ele>
        <time>2020-10-18T12:53:44Z</time>
      </trkpt>
      <trkpt lat="49.64595" lon="5.03512">
        <ele>156.35</ele>
        <time>2020-10-18T12:54:01Z</time>
      </trkpt>
      <trkpt lat="49.6459" lon="5.03543">
        <ele>155.87</ele>
        <time>2020-10-18T12:54:20Z</time>
      </trkpt>
      <trkpt lat="49.64588" lon="5.03578">
        <ele>154.43</ele>
        <time>2020-10-18T12:54:40Z</time>
      </trkpt>
      <trkpt lat="49.64588" lon="5.03594">
        <ele>155.39</ele>
        <time>2020-10-18T12:54:49Z</time>
      </trkpt>
      <trkpt lat="49.64583" lon="5.03625">
        <ele>155.87</ele>
        <time>2020-10-18T12:55:08Z</time>
      </trkpt>
      <trkpt lat="49.6458" lon="5.03655">
        <ele>155.39</ele>
        <time>2020-10-18T12:55:26Z</time>
      </trkpt>
      <trkpt lat="49.6458" lon="5.03662">
        <ele>154.43</ele>
        <time>2020-10-18T12:55:44Z</time>
      </trkpt>
      <trkpt lat="49.6458" lon="5.03663">
        <ele>154.91</ele>
        <time>2020-10-18T12:55:56Z</time>
      </trkpt>
      <trkpt lat="49.64603" lon="5.03674">
        <ele>155.39</ele>
        <time>2020-10-18T12:56:15Z</time>
      </trkpt>
      <trkpt lat="49.64628" lon="5.03682">
        <ele>154.91</ele>
        <time>2020-10-18T12:56:36Z</time>
      </trkpt>
      <trkpt lat="49.64646" lon="5.03685">
        <ele>153.95</ele>
        <time>2020-10-18T12:56:55Z</time>
      </trkpt>
      <trkpt lat="49.64653" lon="5.03687">
        <ele>152.51</ele>
        <time>2020-10-18T12:57:13Z</time>
      </trkpt>
      <trkpt lat="49.64679" lon="5.03694">
        <ele>152.03</ele>
        <time>2020-10-18T12:57:34Z</time>
      </trkpt>
      <trkpt lat="49.64708" lon="5.037">
        <ele>152.99</ele>
        <time>2020-10-18T12:57:57Z</time>
      </trkpt>
      <trkpt lat="49.64734" lon="5.03702">
        <ele>153.95</ele>
        <time>2020-10-18T12:58:19Z</time>
      </trkpt>
      <trkpt lat="49.64758" lon="5.0371">
        <ele>153.95</ele>
        <time>2020-10-18T12:58:40Z</time>
      </trkpt>
      <trkpt lat="49.64782" lon="5.03717">
        <ele>154.91</ele>
        <time>2020-10-18T12:59:00Z</time>
      </trkpt>
      <trkpt lat="49.64796" lon="5.0372">
        <ele>154.91</ele>
        <time>2020-10-18T12:59:11Z</time>
      </trkpt>
      <trkpt lat="49.64823" lon="5.03727">
        <ele>154.91</ele>
        <time>2020-10-18T12:59:34Z</time>
      </trkpt>
      <trkpt lat="49.64848" lon="5.03733">
        <ele>153.95</ele>
        <time>2020-10-18T12:59:55Z</time>
      </trkpt>
      <trkpt lat="49.64875" lon="5.0374">
        <ele>154.43</ele>
        <time>2020-10-18T13:00:18Z</time>
      </trkpt>
      <trkpt lat="49.64902" lon="5.03748">
        <ele>154.43</ele>
        <time>2020-10-18T13:00:41Z</time>
      </trkpt>
      <trkpt lat="49.64928" lon="5.03759">
        <ele>152.99</ele>
        <time>2020-10-18T13:01:04Z</time>
      </trkpt>
      <trkpt lat="49.64951" lon="5.03769">
        <ele>152.51</ele>
        <time>2020-10-18T13:01:24Z</time>
      </trkpt>
      <trkpt lat="49.64972" lon="5.03788">
        <ele>152.03</ele>
        <time>2020-10-18T13:01:44Z</time>
      </trkpt>
      <trkpt lat="49.64991" lon="5.03811">
        <ele>150.1</ele>
        <time>2020-10-18T13:02:05Z</time>
      </trkpt>
      <trkpt lat="49.65013" lon="5.03833">
        <ele>150.58</ele>
        <time>2020-10-18T13:02:27Z</time>
      </trkpt>
      <trkpt lat="49.6503" lon="5.03855">
        <ele>150.58</ele>
        <time>2020-10-18T13:02:47Z</time>
      </trkpt>
      <trkpt lat="49.65047" lon="5.03884">
        <ele>151.06</ele>
        <time>2020-10-18T13:03:08Z</time>
      </trkpt>
      <trkpt lat="49.65062" lon="5.03911">
        <ele>151.54</ele>
        <time>2020-10-18T13:03:28Z</time>
      </trkpt>
      <trkpt lat="49.65075" lon="5.03946">
        <ele>152.03</ele>
        <time>2020-10-18T13:03:50Z</time>
      </trkpt>
      <trkpt lat="49.65077" lon="5.03984">
        <ele>152.51</ele>
        <time>2020-10-18T13:04:12Z</time>
      </trkpt>
      <trkpt lat="49.65076" lon="5.04018">
        <ele>153.47</ele>
        <time>2020-10-18T13:04:32Z</time>
      </trkpt>
      <trkpt lat="49.65076" lon="5.04049">
        <ele>153.47</ele>
        <time>2020-10-18T13:04:51Z</time>
      </trkpt>
      <trkpt lat="49.65077" lon="5.04052">
        <ele>152.99</ele>
        <time>2020-10-18T13:05:04Z</time>
      </trkpt>
      <trkpt lat="49.65076" lon="5.0406">
        <ele>153.95</ele>
        <time>2020-10-18T13:05:19Z</time>
      </trkpt>
      <trkpt lat="49.65071" lon="5.0409">
        <ele>154.43</ele>
        <time>2020-10-18T13:05:37Z</time>
      </trkpt>
      <trkpt lat="49.65063" lon="5.04121">
        <ele>155.39</ele>
        <time>2020-10-18T13:05:55Z</time>
      </trkpt>
      <trkpt lat="49.65062" lon="5.04122">
        <ele>155.87</ele>
        <time>2020-10-18T13:05:56Z</time>
      </trkpt>
      <trkpt lat="49.65061" lon="5.04129">
        <ele>155.87</ele>
        <time>2020-10-18T13:06:00Z</time>
      </trkpt>
      <trkpt lat="49.65053" lon="5.04168">
        <ele>156.83</ele>
        <time>2020-10-18T13:06:23Z</time>
      </trkpt>
      <trkpt lat="49.65047" lon="5.04203">
        <ele>158.75</ele>
        <time>2020-10-18T13:06:43Z</time>
      </trkpt>
      <trkpt lat="49.6504" lon="5.04231">
        <ele>157.79</ele>
        <time>2020-10-18T13:07:00Z</time>
      </trkpt>
      <trkpt lat="49.65036" lon="5.04255">
        <ele>157.79</ele>
        <time>2020-10-18T13:07:14Z</time>
      </trkpt>
      <trkpt lat="49.65033" lon="5.04294">
        <ele>156.83</ele>
        <time>2020-10-18T13:07:37Z</time>
      </trkpt>
      <trkpt lat="49.65029" lon="5.04329">
        <ele>156.35</ele>
        <time>2020-10-18T13:07:57Z</time>
      </trkpt>
      <trkpt lat="49.65024" lon="5.04362">
        <ele>156.35</ele>
        <time>2020-10-18T13:08:17Z</time>
      </trkpt>
      <trkpt lat="49.65024" lon="5.04381">
        <ele>156.35</ele>
        <time>2020-10-18T13:08:31Z</time>
      </trkpt>
      <trkpt lat="49.65022" lon="5.04406">
        <ele>157.31</ele>
        <time>2020-10-18T13:08:46Z</time>
      </trkpt>
      <trkpt lat="49.65021" lon="5.04413">
        <ele>157.31</ele>
        <time>2020-10-18T13:08:50Z</time>
      </trkpt>
      <trkpt lat="49.65017" lon="5.04447">
        <ele>158.75</ele>
        <time>2020-10-18T13:09:10Z</time>
      </trkpt>
      <trkpt lat="49.65012" lon="5.0448">
        <ele>159.72</ele>
        <time>2020-10-18T13:09:29Z</time>
      </trkpt>
      <trkpt lat="49.65006" lon="5.04517">
        <ele>160.68</ele>
        <time>2020-10-18T13:09:50Z</time>
      </trkpt>
      <trkpt lat="49.64998" lon="5.04554">
        <ele>162.12</ele>
        <time>2020-10-18T13:10:11Z</time>
      </trkpt>
      <trkpt lat="49.64992" lon="5.04581">
        <ele>163.08</ele>
        <time>2020-10-18T13:10:28Z</time>
      </trkpt>
      <trkpt lat="49.64986" lon="5.04594">
        <ele>162.12</ele>
        <time>2020-10-18T13:10:45Z</time>
      </trkpt>
      <trkpt lat="49.64987" lon="5.04596">
        <ele>161.64</ele>
        <time>2020-10-18T13:11:03Z</time>
      </trkpt>
      <trkpt lat="49.64986" lon="5.04598">
        <ele>161.16</ele>
        <time>2020-10-18T13:11:27Z</time>
      </trkpt>
      <trkpt lat="49.64986" lon="5.04599">
        <ele>161.16</ele>
        <time>2020-10-18T13:11:51Z</time>
      </trkpt>
      <trkpt lat="49.64986" lon="5.04599">
        <ele>160.68</ele>
        <time>2020-10-18T13:12:11Z</time>
      </trkpt>
      <trkpt lat="49.64986" lon="5.04598">
        <ele>161.64</ele>
        <time>2020-10-18T13:12:44Z</time>
      </trkpt>
      <trkpt lat="49.64986" lon="5.04599">
        <ele>161.16</ele>
        <time>2020-10-18T13:13:25Z</time>
      </trkpt>
      <trkpt lat="49.64986" lon="5.04601">
        <ele>161.16</ele>
        <time>2020-10-18T13:14:00Z</time>
      </trkpt>
      <trkpt lat="49.64986" lon="5.04599">
        <ele>162.12</ele>
        <time>2020-10-18T13:14:27Z</time>
      </trkpt>
      <trkpt lat="49.64986" lon="5.04598">
        <ele>161.64</ele>
        <time>2020-10-18T13:14:59Z</time>
      </trkpt>
      <trkpt lat="49.64986" lon="5.04597">
        <ele>161.64</ele>
        <time>2020-10-18T13:15:39Z</time>
      </trkpt>
      <trkpt lat="49.64987" lon="5.04597">
        <ele>162.12</ele>
        <time>2020-10-18T13:16:15Z</time>
      </trkpt>
      <trkpt lat="49.64986" lon="5.04598">
        <ele>162.12</ele>
        <time>2020-10-18T13:16:50Z</time>
      </trkpt>
      <trkpt lat="49.64987" lon="5.046">
        <ele>162.6</ele>
        <time>2020-10-18T13:17:31Z</time>
      </trkpt>
      <trkpt lat="49.64986" lon="5.04601">
        <ele>162.12</ele>
        <time>2020-10-18T13:18:05Z</time>
      </trkpt>
      <trkpt lat="49.64985" lon="5.046">
        <ele>162.12</ele>
        <time>2020-10-18T13:18:52Z</time>
      </trkpt>
      <trkpt lat="49.64985" lon="5.04599">
        <ele>162.12</ele>
        <time>2020-10-18T13:19:43Z</time>
      </trkpt>
      <trkpt lat="49.64985" lon="5.046">
        <ele>162.12</ele>
        <time>2020-10-18T13:20:29Z</time>
      </trkpt>
      <trkpt lat="49.64986" lon="5.046">
        <ele>162.6</ele>
        <time>2020-10-18T13:21:17Z</time>
      </trkpt>
      <trkpt lat="49.64986" lon="5.04598">
        <ele>162.6</ele>
        <time>2020-10-18T13:22:03Z</time>
      </trkpt>
      <trkpt lat="49.64987" lon="5.04598">
        <ele>161.16</ele>
        <time>2020-10-18T13:22:44Z</time>
      </trkpt>
      <trkpt lat="49.64987" lon="5.04598">
        <ele>161.16</ele>
        <time>2020-10-18T13:23:19Z</time>
      </trkpt>
      <trkpt lat="49.64987" lon="5.04598">
        <ele>161.64</ele>
        <time>2020-10-18T13:23:53Z</time>
      </trkpt>
      <trkpt lat="49.64986" lon="5.04597">
        <ele>161.64</ele>
        <time>2020-10-18T13:24:11Z</time>
      </trkpt>
      <trkpt lat="49.64986" lon="5.04596">
        <ele>161.16</ele>
        <time>2020-10-18T13:24:25Z</time>
      </trkpt>
      <trkpt lat="49.64986" lon="5.04596">
        <ele>160.68</ele>
        <time>2020-10-18T13:24:54Z</time>
      </trkpt>
      <trkpt lat="49.64986" lon="5.04596">
        <ele>161.16</ele>
        <time>2020-10-18T13:25:21Z</time>
      </trkpt>
      <trkpt lat="49.64985" lon="5.04595">
        <ele>161.16</ele>
        <time>2020-10-18T13:25:42Z</time>
      </trkpt>
      <trkpt lat="49.64985" lon="5.04595">
        <ele>161.16</ele>
        <time>2020-10-18T13:26:03Z</time>
      </trkpt>
      <trkpt lat="49.64985" lon="5.04595">
        <ele>161.16</ele>
        <time>2020-10-18T13:26:21Z</time>
      </trkpt>
      <trkpt lat="49.64986" lon="5.04594">
        <ele>160.68</ele>
        <time>2020-10-18T13:26:35Z</time>
      </trkpt>
      <trkpt lat="49.64987" lon="5.04591">
        <ele>160.68</ele>
        <time>2020-10-18T13:26:47Z</time>
      </trkpt>
      <trkpt lat="49.64992" lon="5.04562">
        <ele>159.24</ele>
        <time>2020-10-18T13:27:04Z</time>
      </trkpt>
      <trkpt lat="49.64996" lon="5.04541">
        <ele>155.39</ele>
        <time>2020-10-18T13:27:15Z</time>
      </trkpt>
      <trkpt lat="49.65005" lon="5.04496">
        <ele>149.62</ele>
        <time>2020-10-18T13:27:40Z</time>
      </trkpt>
      <trkpt lat="49.65011" lon="5.04467">
        <ele>146.74</ele>
        <time>2020-10-18T13:27:59Z</time>
      </trkpt>
      <trkpt lat="49.65019" lon="5.04434">
        <ele>145.78</ele>
        <time>2020-10-18T13:28:18Z</time>
      </trkpt>
      <trkpt lat="49.65024" lon="5.04389">
        <ele>149.14</ele>
        <time>2020-10-18T13:28:42Z</time>
      </trkpt>
      <trkpt lat="49.65026" lon="5.0435">
        <ele>149.62</ele>
        <time>2020-10-18T13:29:03Z</time>
      </trkpt>
      <trkpt lat="49.65029" lon="5.04312">
        <ele>147.7</ele>
        <time>2020-10-18T13:29:23Z</time>
      </trkpt>
      <trkpt lat="49.65034" lon="5.04274">
        <ele>148.18</ele>
        <time>2020-10-18T13:29:45Z</time>
      </trkpt>
      <trkpt lat="49.65041" lon="5.04235">
        <ele>149.62</ele>
        <time>2020-10-18T13:30:07Z</time>
      </trkpt>
      <trkpt lat="49.65048" lon="5.04201">
        <ele>150.58</ele>
        <time>2020-10-18T13:30:28Z</time>
      </trkpt>
      <trkpt lat="49.65053" lon="5.04168">
        <ele>147.22</ele>
        <time>2020-10-18T13:30:47Z</time>
      </trkpt>
      <trkpt lat="49.65059" lon="5.04134">
        <ele>147.22</ele>
        <time>2020-10-18T13:31:06Z</time>
      </trkpt>
      <trkpt lat="49.65066" lon="5.04105">
        <ele>147.22</ele>
        <time>2020-10-18T13:31:24Z</time>
      </trkpt>
      <trkpt lat="49.65076" lon="5.04067">
        <ele>147.7</ele>
        <time>2020-10-18T13:31:48Z</time>
      </trkpt>
      <trkpt lat="49.65078" lon="5.04057">
        <ele>146.74</ele>
        <time>2020-10-18T13:31:54Z</time>
      </trkpt>
      <trkpt lat="49.65095" lon="5.04025">
        <ele>145.3</ele>
        <time>2020-10-18T13:32:18Z</time>
      </trkpt>
      <trkpt lat="49.65104" lon="5.0399">
        <ele>147.22</ele>
        <time>2020-10-18T13:32:38Z</time>
      </trkpt>
      <trkpt lat="49.65111" lon="5.03954">
        <ele>146.74</ele>
        <time>2020-10-18T13:32:59Z</time>
      </trkpt>
      <trkpt lat="49.65119" lon="5.03922">
        <ele>146.74</ele>
        <time>2020-10-18T13:33:18Z</time>
      </trkpt>
      <trkpt lat="49.65124" lon="5.03889">
        <ele>146.74</ele>
        <time>2020-10-18T13:33:37Z</time>
      </trkpt>
      <trkpt lat="49.6513" lon="5.03852">
        <ele>147.7</ele>
        <time>2020-10-18T13:33:58Z</time>
      </trkpt>
      <trkpt lat="49.65136" lon="5.03815">
        <ele>147.7</ele>
        <time>2020-10-18T13:34:18Z</time>
      </trkpt>
      <trkpt lat="49.65143" lon="5.03776">
        <ele>148.66</ele>
        <time>2020-10-18T13:34:40Z</time>
      </trkpt>
      <trkpt lat="49.65148" lon="5.03751">
        <ele>148.18</ele>
        <time>2020-10-18T13:34:55Z</time>
      </trkpt>
      <trkpt lat="49.65154" lon="5.03709">
        <ele>148.66</ele>
        <time>2020-10-18T13:35:19Z</time>
      </trkpt>
      <trkpt lat="49.65161" lon="5.03674">
        <ele>148.66</ele>
        <time>2020-10-18T13:35:40Z</time>
      </trkpt>
      <trkpt lat="49.65167" lon="5.03635">
        <ele>149.14</ele>
        <time>2020-10-18T13:36:02Z</time>
      </trkpt>
      <trkpt lat="49.65173" lon="5.03597">
        <ele>149.62</ele>
        <time>2020-10-18T13:36:24Z</time>
      </trkpt>
      <trkpt lat="49.6518" lon="5.03566">
        <ele>148.66</ele>
        <time>2020-10-18T13:36:42Z</time>
      </trkpt>
      <trkpt lat="49.65188" lon="5.03523">
        <ele>148.66</ele>
        <time>2020-10-18T13:37:06Z</time>
      </trkpt>
      <trkpt lat="49.65194" lon="5.03483">
        <ele>148.18</ele>
        <time>2020-10-18T13:37:28Z</time>
      </trkpt>
      <trkpt lat="49.652" lon="5.0345">
        <ele>149.62</ele>
        <time>2020-10-18T13:37:48Z</time>
      </trkpt>
      <trkpt lat="49.65207" lon="5.03404">
        <ele>150.58</ele>
        <time>2020-10-18T13:38:13Z</time>
      </trkpt>
      <trkpt lat="49.65208" lon="5.03382">
        <ele>148.66</ele>
        <time>2020-10-18T13:38:25Z</time>
      </trkpt>
      <trkpt lat="49.6521" lon="5.03376">
        <ele>149.14</ele>
        <time>2020-10-18T13:38:29Z</time>
      </trkpt>
      <trkpt lat="49.65213" lon="5.03335">
        <ele>149.62</ele>
        <time>2020-10-18T13:38:52Z</time>
      </trkpt>
      <trkpt lat="49.65223" lon="5.03297">
        <ele>151.54</ele>
        <time>2020-10-18T13:39:14Z</time>
      </trkpt>
      <trkpt lat="49.65227" lon="5.03255">
        <ele>150.58</ele>
        <time>2020-10-18T13:39:37Z</time>
      </trkpt>
      <trkpt lat="49.65232" lon="5.03214">
        <ele>148.66</ele>
        <time>2020-10-18T13:39:59Z</time>
      </trkpt>
      <trkpt lat="49.65238" lon="5.03173">
        <ele>148.18</ele>
        <time>2020-10-18T13:40:22Z</time>
      </trkpt>
      <trkpt lat="49.65242" lon="5.03136">
        <ele>147.7</ele>
        <time>2020-10-18T13:40:42Z</time>
      </trkpt>
      <trkpt lat="49.65251" lon="5.03097">
        <ele>147.7</ele>
        <time>2020-10-18T13:41:04Z</time>
      </trkpt>
      <trkpt lat="49.65268" lon="5.03068">
        <ele>144.82</ele>
        <time>2020-10-18T13:41:25Z</time>
      </trkpt>
      <trkpt lat="49.65287" lon="5.03046">
        <ele>143.37</ele>
        <time>2020-10-18T13:41:45Z</time>
      </trkpt>
      <trkpt lat="49.65306" lon="5.03025">
        <ele>142.89</ele>
        <time>2020-10-18T13:42:05Z</time>
      </trkpt>
      <trkpt lat="49.65329" lon="5.03001">
        <ele>143.37</ele>
        <time>2020-10-18T13:42:27Z</time>
      </trkpt>
      <trkpt lat="49.65338" lon="5.02968">
        <ele>142.41</ele>
        <time>2020-10-18T13:42:47Z</time>
      </trkpt>
      <trkpt lat="49.65345" lon="5.02932">
        <ele>146.74</ele>
        <time>2020-10-18T13:43:07Z</time>
      </trkpt>
      <trkpt lat="49.65353" lon="5.02887">
        <ele>146.26</ele>
        <time>2020-10-18T13:43:31Z</time>
      </trkpt>
      <trkpt lat="49.65356" lon="5.02847">
        <ele>146.74</ele>
        <time>2020-10-18T13:43:53Z</time>
      </trkpt>
      <trkpt lat="49.65363" lon="5.02809">
        <ele>147.7</ele>
        <time>2020-10-18T13:44:14Z</time>
      </trkpt>
      <trkpt lat="49.65365" lon="5.02772">
        <ele>145.3</ele>
        <time>2020-10-18T13:44:34Z</time>
      </trkpt>
      <trkpt lat="49.65371" lon="5.02732">
        <ele>147.7</ele>
        <time>2020-10-18T13:44:56Z</time>
      </trkpt>
      <trkpt lat="49.65371" lon="5.02693">
        <ele>145.3</ele>
        <time>2020-10-18T13:45:15Z</time>
      </trkpt>
      <trkpt lat="49.65374" lon="5.0266">
        <ele>144.34</ele>
        <time>2020-10-18T13:45:35Z</time>
      </trkpt>
      <trkpt lat="49.65374" lon="5.0266">
        <ele>144.34</ele>
        <time>2020-10-18T13:46:02Z</time>
      </trkpt>
      <trkpt lat="49.65375" lon="5.02656">
        <ele>145.3</ele>
        <time>2020-10-18T13:46:30Z</time>
      </trkpt>
      <trkpt lat="49.65378" lon="5.02619">
        <ele>147.22</ele>
        <time>2020-10-18T13:46:48Z</time>
      </trkpt>
      <trkpt lat="49.65382" lon="5.02576">
        <ele>147.22</ele>
        <time>2020-10-18T13:47:09Z</time>
      </trkpt>
      <trkpt lat="49.65383" lon="5.02541">
        <ele>148.66</ele>
        <time>2020-10-18T13:47:28Z</time>
      </trkpt>
      <trkpt lat="49.65385" lon="5.02499">
        <ele>147.7</ele>
        <time>2020-10-18T13:47:49Z</time>
      </trkpt>
      <trkpt lat="49.65392" lon="5.02469">
        <ele>142.89</ele>
        <time>2020-10-18T13:48:08Z</time>
      </trkpt>
      <trkpt lat="49.65403" lon="5.02443">
        <ele>142.41</ele>
        <time>2020-10-18T13:48:26Z</time>
      </trkpt>
      <trkpt lat="49.65412" lon="5.02411">
        <ele>140.97</ele>
        <time>2020-10-18T13:48:45Z</time>
      </trkpt>
      <trkpt lat="49.65424" lon="5.02379">
        <ele>140.49</ele>
        <time>2020-10-18T13:49:05Z</time>
      </trkpt>
      <trkpt lat="49.65433" lon="5.02349">
        <ele>139.53</ele>
        <time>2020-10-18T13:49:24Z</time>
      </trkpt>
      <trkpt lat="49.65445" lon="5.02316">
        <ele>138.09</ele>
        <time>2020-10-18T13:49:45Z</time>
      </trkpt>
      <trkpt lat="49.65458" lon="5.02281">
        <ele>139.05</ele>
        <time>2020-10-18T13:50:06Z</time>
      </trkpt>
      <trkpt lat="49.65467" lon="5.02252">
        <ele>137.61</ele>
        <time>2020-10-18T13:50:24Z</time>
      </trkpt>
      <trkpt lat="49.65478" lon="5.02218">
        <ele>137.13</ele>
        <time>2020-10-18T13:50:45Z</time>
      </trkpt>
      <trkpt lat="49.65489" lon="5.02184">
        <ele>136.64</ele>
        <time>2020-10-18T13:51:06Z</time>
      </trkpt>
      <trkpt lat="49.65494" lon="5.02164">
        <ele>136.64</ele>
        <time>2020-10-18T13:51:18Z</time>
      </trkpt>
      <trkpt lat="49.65498" lon="5.02158">
        <ele>137.13</ele>
        <time>2020-10-18T13:51:22Z</time>
      </trkpt>
      <trkpt lat="49.65506" lon="5.02119">
        <ele>135.68</ele>
        <time>2020-10-18T13:51:45Z</time>
      </trkpt>
      <trkpt lat="49.65509" lon="5.02112">
        <ele>135.68</ele>
        <time>2020-10-18T13:51:50Z</time>
      </trkpt>
      <trkpt lat="49.65515" lon="5.02089">
        <ele>134.24</ele>
        <time>2020-10-18T13:52:03Z</time>
      </trkpt>
      <trkpt lat="49.65519" lon="5.02057">
        <ele>130.88</ele>
        <time>2020-10-18T13:52:20Z</time>
      </trkpt>
      <trkpt lat="49.6552" lon="5.02047">
        <ele>131.36</ele>
        <time>2020-10-18T13:52:26Z</time>
      </trkpt>
      <trkpt lat="49.65532" lon="5.02007">
        <ele>135.2</ele>
        <time>2020-10-18T13:52:49Z</time>
      </trkpt>
      <trkpt lat="49.6554" lon="5.01971">
        <ele>137.61</ele>
        <time>2020-10-18T13:53:10Z</time>
      </trkpt>
      <trkpt lat="49.65547" lon="5.01932">
        <ele>139.05</ele>
        <time>2020-10-18T13:53:32Z</time>
      </trkpt>
      <trkpt lat="49.65551" lon="5.01897">
        <ele>139.05</ele>
        <time>2020-10-18T13:53:51Z</time>
      </trkpt>
      <trkpt lat="49.65556" lon="5.01863">
        <ele>141.45</ele>
        <time>2020-10-18T13:54:12Z</time>
      </trkpt>
      <trkpt lat="49.65567" lon="5.01829">
        <ele>140.97</ele>
        <time>2020-10-18T13:54:32Z</time>
      </trkpt>
      <trkpt lat="49.65582" lon="5.01812">
        <ele>140.01</ele>
        <time>2020-10-18T13:54:50Z</time>
      </trkpt>
      <trkpt lat="49.65603" lon="5.01793">
        <ele>139.53</ele>
        <time>2020-10-18T13:55:10Z</time>
      </trkpt>
      <trkpt lat="49.65625" lon="5.01772">
        <ele>139.53</ele>
        <time>2020-10-18T13:55:33Z</time>
      </trkpt>
      <trkpt lat="49.65652" lon="5.0175">
        <ele>141.45</ele>
        <time>2020-10-18T13:55:56Z</time>
      </trkpt>
      <trkpt lat="49.6567" lon="5.01732">
        <ele>139.53</ele>
        <time>2020-10-18T13:56:14Z</time>
      </trkpt>
      <trkpt lat="49.65693" lon="5.01714">
        <ele>141.93</ele>
        <time>2020-10-18T13:56:35Z</time>
      </trkpt>
      <trkpt lat="49.65712" lon="5.01699">
        <ele>142.41</ele>
        <time>2020-10-18T13:56:54Z</time>
      </trkpt>
      <trkpt lat="49.65731" lon="5.01681">
        <ele>140.97</ele>
        <time>2020-10-18T13:57:15Z</time>
      </trkpt>
      <trkpt lat="49.65752" lon="5.01664">
        <ele>141.93</ele>
        <time>2020-10-18T13:57:34Z</time>
      </trkpt>
      <trkpt lat="49.65765" lon="5.01653">
        <ele>142.41</ele>
        <time>2020-10-18T13:57:46Z</time>
      </trkpt>
      <trkpt lat="49.6577" lon="5.01628">
        <ele>145.3</ele>
        <time>2020-10-18T13:58:05Z</time>
      </trkpt>
      <trkpt lat="49.65765" lon="5.01609">
        <ele>147.7</ele>
        <time>2020-10-18T13:58:20Z</time>
      </trkpt>
      <trkpt lat="49.6577" lon="5.01597">
        <ele>148.66</ele>
        <time>2020-10-18T13:58:39Z</time>
      </trkpt>
      <trkpt lat="49.65771" lon="5.01595">
        <ele>146.74</ele>
        <time>2020-10-18T13:59:02Z</time>
      </trkpt>
      <trkpt lat="49.65773" lon="5.01592">
        <ele>147.22</ele>
        <time>2020-10-18T13:59:36Z</time>
      </trkpt>
      <trkpt lat="49.65773" lon="5.01593">
        <ele>147.7</ele>
        <time>2020-10-18T13:59:53Z</time>
      </trkpt>
      <trkpt lat="49.65773" lon="5.01593">
        <ele>147.7</ele>
        <time>2020-10-18T14:00:17Z</time>
      </trkpt>
      <trkpt lat="49.65773" lon="5.01593">
        <ele>147.7</ele>
        <time>2020-10-18T14:00:35Z</time>
      </trkpt>
      <trkpt lat="49.65763" lon="5.01588">
        <ele>147.7</ele>
        <time>2020-10-18T14:00:52Z</time>
      </trkpt>
      <trkpt lat="49.65762" lon="5.01585">
        <ele>147.7</ele>
        <time>2020-10-18T14:00:54Z</time>
      </trkpt>
      <trkpt lat="49.65742" lon="5.01548">
        <ele>149.62</ele>
        <time>2020-10-18T14:01:19Z</time>
      </trkpt>
      <trkpt lat="49.65731" lon="5.01513">
        <ele>150.1</ele>
        <time>2020-10-18T14:01:41Z</time>
      </trkpt>
      <trkpt lat="49.65724" lon="5.01474">
        <ele>152.03</ele>
        <time>2020-10-18T14:02:05Z</time>
      </trkpt>
      <trkpt lat="49.65719" lon="5.01431">
        <ele>152.03</ele>
        <time>2020-10-18T14:02:28Z</time>
      </trkpt>
      <trkpt lat="49.65712" lon="5.01404">
        <ele>152.51</ele>
        <time>2020-10-18T14:02:46Z</time>
      </trkpt>
      <trkpt lat="49.65705" lon="5.01361">
        <ele>150.58</ele>
        <time>2020-10-18T14:03:09Z</time>
      </trkpt>
      <trkpt lat="49.65704" lon="5.01347">
        <ele>152.51</ele>
        <time>2020-10-18T14:03:18Z</time>
      </trkpt>
      <trkpt lat="49.65702" lon="5.01302">
        <ele>154.43</ele>
        <time>2020-10-18T14:03:43Z</time>
      </trkpt>
      <trkpt lat="49.65702" lon="5.01269">
        <ele>153.95</ele>
        <time>2020-10-18T14:04:04Z</time>
      </trkpt>
      <trkpt lat="49.657" lon="5.01231">
        <ele>156.35</ele>
        <time>2020-10-18T14:04:25Z</time>
      </trkpt>
      <trkpt lat="49.65699" lon="5.01221">
        <ele>155.87</ele>
        <time>2020-10-18T14:04:31Z</time>
      </trkpt>
      <trkpt lat="49.65695" lon="5.01179">
        <ele>155.87</ele>
        <time>2020-10-18T14:04:54Z</time>
      </trkpt>
      <trkpt lat="49.6569" lon="5.01142">
        <ele>153.47</ele>
        <time>2020-10-18T14:05:14Z</time>
      </trkpt>
      <trkpt lat="49.65688" lon="5.01121">
        <ele>152.03</ele>
        <time>2020-10-18T14:05:32Z</time>
      </trkpt>
      <trkpt lat="49.65686" lon="5.01122">
        <ele>151.06</ele>
        <time>2020-10-18T14:05:52Z</time>
      </trkpt>
      <trkpt lat="49.65685" lon="5.01124">
        <ele>150.58</ele>
        <time>2020-10-18T14:06:24Z</time>
      </trkpt>
      <trkpt lat="49.65686" lon="5.01112">
        <ele>148.18</ele>
        <time>2020-10-18T14:06:38Z</time>
      </trkpt>
      <trkpt lat="49.65684" lon="5.01081">
        <ele>150.1</ele>
        <time>2020-10-18T14:06:57Z</time>
      </trkpt>
      <trkpt lat="49.65682" lon="5.01039">
        <ele>152.99</ele>
        <time>2020-10-18T14:07:22Z</time>
      </trkpt>
      <trkpt lat="49.65677" lon="5.01001">
        <ele>148.18</ele>
        <time>2020-10-18T14:07:43Z</time>
      </trkpt>
      <trkpt lat="49.65677" lon="5.00966">
        <ele>149.14</ele>
        <time>2020-10-18T14:08:03Z</time>
      </trkpt>
      <trkpt lat="49.65671" lon="5.0093">
        <ele>149.14</ele>
        <time>2020-10-18T14:08:24Z</time>
      </trkpt>
      <trkpt lat="49.65671" lon="5.00926">
        <ele>149.62</ele>
        <time>2020-10-18T14:08:26Z</time>
      </trkpt>
      <trkpt lat="49.65668" lon="5.00885">
        <ele>150.58</ele>
        <time>2020-10-18T14:08:49Z</time>
      </trkpt>
      <trkpt lat="49.65663" lon="5.00844">
        <ele>152.51</ele>
        <time>2020-10-18T14:09:14Z</time>
      </trkpt>
      <trkpt lat="49.65659" lon="5.0081">
        <ele>158.75</ele>
        <time>2020-10-18T14:09:34Z</time>
      </trkpt>
      <trkpt lat="49.65653" lon="5.00771">
        <ele>158.75</ele>
        <time>2020-10-18T14:09:56Z</time>
      </trkpt>
      <trkpt lat="49.65648" lon="5.00738">
        <ele>158.75</ele>
        <time>2020-10-18T14:10:16Z</time>
      </trkpt>
      <trkpt lat="49.65645" lon="5.00704">
        <ele>160.68</ele>
        <time>2020-10-18T14:10:36Z</time>
      </trkpt>
      <trkpt lat="49.65641" lon="5.00667">
        <ele>162.6</ele>
        <time>2020-10-18T14:10:58Z</time>
      </trkpt>
      <trkpt lat="49.65633" lon="5.00632">
        <ele>160.68</ele>
        <time>2020-10-18T14:11:19Z</time>
      </trkpt>
      <trkpt lat="49.65623" lon="5.00601">
        <ele>161.16</ele>
        <time>2020-10-18T14:11:39Z</time>
      </trkpt>
      <trkpt lat="49.65608" lon="5.00565">
        <ele>160.68</ele>
        <time>2020-10-18T14:12:02Z</time>
      </trkpt>
      <trkpt lat="49.65594" lon="5.00532">
        <ele>156.83</ele>
        <time>2020-10-18T14:12:24Z</time>
      </trkpt>
      <trkpt lat="49.65579" lon="5.00502">
        <ele>154.91</ele>
        <time>2020-10-18T14:12:45Z</time>
      </trkpt>
      <trkpt lat="49.65569" lon="5.00477">
        <ele>153.47</ele>
        <time>2020-10-18T14:13:02Z</time>
      </trkpt>
      <trkpt lat="49.65554" lon="5.00444">
        <ele>152.03</ele>
        <time>2020-10-18T14:13:24Z</time>
      </trkpt>
      <trkpt lat="49.65541" lon="5.00415">
        <ele>150.58</ele>
        <time>2020-10-18T14:13:44Z</time>
      </trkpt>
      <trkpt lat="49.65532" lon="5.00398">
        <ele>149.14</ele>
        <time>2020-10-18T14:13:58Z</time>
      </trkpt>
      <trkpt lat="49.65518" lon="5.00368">
        <ele>147.7</ele>
        <time>2020-10-18T14:14:19Z</time>
      </trkpt>
      <trkpt lat="49.65504" lon="5.00337">
        <ele>146.26</ele>
        <time>2020-10-18T14:14:41Z</time>
      </trkpt>
      <trkpt lat="49.65491" lon="5.0031">
        <ele>145.3</ele>
        <time>2020-10-18T14:15:01Z</time>
      </trkpt>
      <trkpt lat="49.65479" lon="5.00283">
        <ele>145.78</ele>
        <time>2020-10-18T14:15:20Z</time>
      </trkpt>
      <trkpt lat="49.65465" lon="5.00254">
        <ele>145.78</ele>
        <time>2020-10-18T14:15:41Z</time>
      </trkpt>
      <trkpt lat="49.65451" lon="5.00225">
        <ele>145.78</ele>
        <time>2020-10-18T14:16:04Z</time>
      </trkpt>
      <trkpt lat="49.65437" lon="5.00195">
        <ele>147.22</ele>
        <time>2020-10-18T14:16:26Z</time>
      </trkpt>
      <trkpt lat="49.65425" lon="5.00167">
        <ele>149.62</ele>
        <time>2020-10-18T14:16:46Z</time>
      </trkpt>
      <trkpt lat="49.65414" lon="5.00142">
        <ele>150.58</ele>
        <time>2020-10-18T14:17:04Z</time>
      </trkpt>
      <trkpt lat="49.65403" lon="5.00116">
        <ele>152.99</ele>
        <time>2020-10-18T14:17:22Z</time>
      </trkpt>
      <trkpt lat="49.6539" lon="5.00092">
        <ele>153.47</ele>
        <time>2020-10-18T14:17:41Z</time>
      </trkpt>
      <trkpt lat="49.65373" lon="5.00073">
        <ele>151.54</ele>
        <time>2020-10-18T14:18:00Z</time>
      </trkpt>
      <trkpt lat="49.65354" lon="5.00052">
        <ele>152.51</ele>
        <time>2020-10-18T14:18:21Z</time>
      </trkpt>
      <trkpt lat="49.65336" lon="5.0003">
        <ele>154.91</ele>
        <time>2020-10-18T14:18:43Z</time>
      </trkpt>
      <trkpt lat="49.65319" lon="5.00012">
        <ele>156.83</ele>
        <time>2020-10-18T14:19:05Z</time>
      </trkpt>
      <trkpt lat="49.65303" lon="4.99991">
        <ele>156.83</ele>
        <time>2020-10-18T14:19:27Z</time>
      </trkpt>
      <trkpt lat="49.65282" lon="4.99969">
        <ele>152.51</ele>
        <time>2020-10-18T14:19:48Z</time>
      </trkpt>
      <trkpt lat="49.6526" lon="4.99946">
        <ele>149.62</ele>
        <time>2020-10-18T14:20:10Z</time>
      </trkpt>
      <trkpt lat="49.65242" lon="4.99924">
        <ele>146.74</ele>
        <time>2020-10-18T14:20:30Z</time>
      </trkpt>
      <trkpt lat="49.65225" lon="4.99902">
        <ele>148.66</ele>
        <time>2020-10-18T14:20:49Z</time>
      </trkpt>
      <trkpt lat="49.65222" lon="4.99891">
        <ele>152.03</ele>
        <time>2020-10-18T14:21:02Z</time>
      </trkpt>
      <trkpt lat="49.65226" lon="4.99876">
        <ele>152.51</ele>
        <time>2020-10-18T14:21:15Z</time>
      </trkpt>
      <trkpt lat="49.6524" lon="4.99849">
        <ele>149.14</ele>
        <time>2020-10-18T14:21:36Z</time>
      </trkpt>
      <trkpt lat="49.65258" lon="4.99828">
        <ele>144.34</ele>
        <time>2020-10-18T14:21:56Z</time>
      </trkpt>
      <trkpt lat="49.65272" lon="4.99794">
        <ele>140.49</ele>
        <time>2020-10-18T14:22:17Z</time>
      </trkpt>
      <trkpt lat="49.65283" lon="4.99765">
        <ele>139.05</ele>
        <time>2020-10-18T14:22:37Z</time>
      </trkpt>
      <trkpt lat="49.65296" lon="4.99738">
        <ele>136.16</ele>
        <time>2020-10-18T14:22:56Z</time>
      </trkpt>
      <trkpt lat="49.65308" lon="4.99704">
        <ele>136.16</ele>
        <time>2020-10-18T14:23:18Z</time>
      </trkpt>
      <trkpt lat="49.65322" lon="4.99669">
        <ele>135.68</ele>
        <time>2020-10-18T14:23:43Z</time>
      </trkpt>
      <trkpt lat="49.65332" lon="4.99642">
        <ele>138.57</ele>
        <time>2020-10-18T14:24:04Z</time>
      </trkpt>
      <trkpt lat="49.65347" lon="4.99612">
        <ele>143.85</ele>
        <time>2020-10-18T14:24:29Z</time>
      </trkpt>
      <trkpt lat="49.65364" lon="4.99582">
        <ele>150.1</ele>
        <time>2020-10-18T14:24:51Z</time>
      </trkpt>
      <trkpt lat="49.65381" lon="4.99553">
        <ele>152.99</ele>
        <time>2020-10-18T14:25:14Z</time>
      </trkpt>
      <trkpt lat="49.65394" lon="4.99527">
        <ele>154.91</ele>
        <time>2020-10-18T14:25:33Z</time>
      </trkpt>
      <trkpt lat="49.65414" lon="4.99499">
        <ele>158.27</ele>
        <time>2020-10-18T14:25:56Z</time>
      </trkpt>
      <trkpt lat="49.65432" lon="4.9947">
        <ele>159.72</ele>
        <time>2020-10-18T14:26:20Z</time>
      </trkpt>
      <trkpt lat="49.65447" lon="4.99442">
        <ele>157.31</ele>
        <time>2020-10-18T14:26:42Z</time>
      </trkpt>
      <trkpt lat="49.65465" lon="4.9941">
        <ele>155.87</ele>
        <time>2020-10-18T14:27:07Z</time>
      </trkpt>
      <trkpt lat="49.65482" lon="4.99381">
        <ele>156.35</ele>
        <time>2020-10-18T14:27:31Z</time>
      </trkpt>
      <trkpt lat="49.65499" lon="4.99354">
        <ele>157.79</ele>
        <time>2020-10-18T14:27:53Z</time>
      </trkpt>
      <trkpt lat="49.65516" lon="4.99328">
        <ele>159.24</ele>
        <time>2020-10-18T14:28:15Z</time>
      </trkpt>
      <trkpt lat="49.65533" lon="4.993">
        <ele>158.75</ele>
        <time>2020-10-18T14:28:37Z</time>
      </trkpt>
      <trkpt lat="49.65537" lon="4.99291">
        <ele>158.75</ele>
        <time>2020-10-18T14:28:43Z</time>
      </trkpt>
      <trkpt lat="49.65555" lon="4.99259">
        <ele>157.79</ele>
        <time>2020-10-18T14:29:08Z</time>
      </trkpt>
      <trkpt lat="49.65561" lon="4.99235">
        <ele>157.31</ele>
        <time>2020-10-18T14:29:28Z</time>
      </trkpt>
      <trkpt lat="49.65554" lon="4.99228">
        <ele>153.47</ele>
        <time>2020-10-18T14:29:48Z</time>
      </trkpt>
      <trkpt lat="49.65553" lon="4.99227">
        <ele>151.54</ele>
        <time>2020-10-18T14:30:08Z</time>
      </trkpt>
      <trkpt lat="49.65553" lon="4.99226">
        <ele>150.58</ele>
        <time>2020-10-18T14:30:41Z</time>
      </trkpt>
      <trkpt lat="49.65553" lon="4.99226">
        <ele>151.06</ele>
        <time>2020-10-18T14:31:02Z</time>
      </trkpt>
      <trkpt lat="49.65553" lon="4.99227">
        <ele>151.54</ele>
        <time>2020-10-18T14:31:30Z</time>
      </trkpt>
      <trkpt lat="49.65553" lon="4.99226">
        <ele>151.54</ele>
        <time>2020-10-18T14:31:57Z</time>
      </trkpt>
      <trkpt lat="49.65553" lon="4.99226">
        <ele>151.54</ele>
        <time>2020-10-18T14:32:23Z</time>
      </trkpt>
      <trkpt lat="49.65552" lon="4.99226">
        <ele>150.58</ele>
        <time>2020-10-18T14:32:49Z</time>
      </trkpt>
      <trkpt lat="49.65553" lon="4.99226">
        <ele>150.58</ele>
        <time>2020-10-18T14:33:18Z</time>
      </trkpt>
      <trkpt lat="49.65553" lon="4.99225">
        <ele>151.54</ele>
        <time>2020-10-18T14:33:52Z</time>
      </trkpt>
      <trkpt lat="49.65553" lon="4.99226">
        <ele>151.06</ele>
        <time>2020-10-18T14:34:13Z</time>
      </trkpt>
      <trkpt lat="49.65553" lon="4.99226">
        <ele>150.58</ele>
        <time>2020-10-18T14:34:42Z</time>
      </trkpt>
      <trkpt lat="49.65553" lon="4.99226">
        <ele>150.58</ele>
        <time>2020-10-18T14:34:57Z</time>
      </trkpt>
      <trkpt lat="49.65553" lon="4.99226">
        <ele>151.06</ele>
        <time>2020-10-18T14:35:22Z</time>
      </trkpt>
      <trkpt lat="49.65552" lon="4.99225">
        <ele>150.58</ele>
        <time>2020-10-18T14:35:51Z</time>
      </trkpt>
      <trkpt lat="49.65552" lon="4.99225">
        <ele>151.54</ele>
        <time>2020-10-18T14:36:12Z</time>
      </trkpt>
      <trkpt lat="49.65552" lon="4.99225">
        <ele>151.54</ele>
        <time>2020-10-18T14:36:31Z</time>
      </trkpt>
      <trkpt lat="49.65552" lon="4.99224">
        <ele>151.54</ele>
        <time>2020-10-18T14:36:47Z</time>
      </trkpt>
      <trkpt lat="49.65552" lon="4.99224">
        <ele>151.54</ele>
        <time>2020-10-18T14:37:17Z</time>
      </trkpt>
      <trkpt lat="49.65537" lon="4.99215">
        <ele>149.14</ele>
        <time>2020-10-18T14:37:36Z</time>
      </trkpt>
      <trkpt lat="49.6552" lon="4.99203">
        <ele>144.34</ele>
        <time>2020-10-18T14:37:56Z</time>
      </trkpt>
      <trkpt lat="49.65506" lon="4.99199">
        <ele>141.93</ele>
        <time>2020-10-18T14:38:10Z</time>
      </trkpt>
      <trkpt lat="49.65495" lon="4.99198">
        <ele>142.89</ele>
        <time>2020-10-18T14:38:19Z</time>
      </trkpt>
      <trkpt lat="49.65489" lon="4.99206">
        <ele>144.82</ele>
        <time>2020-10-18T14:38:28Z</time>
      </trkpt>
      <trkpt lat="49.65479" lon="4.9924">
        <ele>146.74</ele>
        <time>2020-10-18T14:38:49Z</time>
      </trkpt>
      <trkpt lat="49.65472" lon="4.99265">
        <ele>147.22</ele>
        <time>2020-10-18T14:39:06Z</time>
      </trkpt>
      <trkpt lat="49.65453" lon="4.99282">
        <ele>147.7</ele>
        <time>2020-10-18T14:39:27Z</time>
      </trkpt>
      <trkpt lat="49.65449" lon="4.99278">
        <ele>147.7</ele>
        <time>2020-10-18T14:39:32Z</time>
      </trkpt>
      <trkpt lat="49.65438" lon="4.99262">
        <ele>145.3</ele>
        <time>2020-10-18T14:39:47Z</time>
      </trkpt>
      <trkpt lat="49.65427" lon="4.99239">
        <ele>141.45</ele>
        <time>2020-10-18T14:40:04Z</time>
      </trkpt>
      <trkpt lat="49.65423" lon="4.99229">
        <ele>138.09</ele>
        <time>2020-10-18T14:40:12Z</time>
      </trkpt>
      <trkpt lat="49.65413" lon="4.99211">
        <ele>133.76</ele>
        <time>2020-10-18T14:40:28Z</time>
      </trkpt>
      <trkpt lat="49.65394" lon="4.99192">
        <ele>135.2</ele>
        <time>2020-10-18T14:40:46Z</time>
      </trkpt>
      <trkpt lat="49.65387" lon="4.99187">
        <ele>135.2</ele>
        <time>2020-10-18T14:40:52Z</time>
      </trkpt>
      <trkpt lat="49.65384" lon="4.99187">
        <ele>135.68</ele>
        <time>2020-10-18T14:40:54Z</time>
      </trkpt>
      <trkpt lat="49.65373" lon="4.99192">
        <ele>140.01</ele>
        <time>2020-10-18T14:41:04Z</time>
      </trkpt>
      <trkpt lat="49.6537" lon="4.99184">
        <ele>145.78</ele>
        <time>2020-10-18T14:41:21Z</time>
      </trkpt>
      <trkpt lat="49.6537" lon="4.99182">
        <ele>151.06</ele>
        <time>2020-10-18T14:41:49Z</time>
      </trkpt>
      <trkpt lat="49.6537" lon="4.9918">
        <ele>152.03</ele>
        <time>2020-10-18T14:42:11Z</time>
      </trkpt>
      <trkpt lat="49.65371" lon="4.9918">
        <ele>151.54</ele>
        <time>2020-10-18T14:42:36Z</time>
      </trkpt>
      <trkpt lat="49.6537" lon="4.99179">
        <ele>152.03</ele>
        <time>2020-10-18T14:42:56Z</time>
      </trkpt>
      <trkpt lat="49.65369" lon="4.9918">
        <ele>152.51</ele>
        <time>2020-10-18T14:43:20Z</time>
      </trkpt>
      <trkpt lat="49.65368" lon="4.9918">
        <ele>152.51</ele>
        <time>2020-10-18T14:43:45Z</time>
      </trkpt>
      <trkpt lat="49.65369" lon="4.9918">
        <ele>152.51</ele>
        <time>2020-10-18T14:44:11Z</time>
      </trkpt>
      <trkpt lat="49.65369" lon="4.99178">
        <ele>152.51</ele>
        <time>2020-10-18T14:44:39Z</time>
      </trkpt>
      <trkpt lat="49.65368" lon="4.99178">
        <ele>152.03</ele>
        <time>2020-10-18T14:45:09Z</time>
      </trkpt>
      <trkpt lat="49.65367" lon="4.99178">
        <ele>151.54</ele>
        <time>2020-10-18T14:45:28Z</time>
      </trkpt>
      <trkpt lat="49.65368" lon="4.99177">
        <ele>151.06</ele>
        <time>2020-10-18T14:46:03Z</time>
      </trkpt>
      <trkpt lat="49.65369" lon="4.99177">
        <ele>151.54</ele>
        <time>2020-10-18T14:46:32Z</time>
      </trkpt>
      <trkpt lat="49.65368" lon="4.99177">
        <ele>151.54</ele>
        <time>2020-10-18T14:46:58Z</time>
      </trkpt>
      <trkpt lat="49.65369" lon="4.99176">
        <ele>152.99</ele>
        <time>2020-10-18T14:47:35Z</time>
      </trkpt>
      <trkpt lat="49.65369" lon="4.99176">
        <ele>153.47</ele>
        <time>2020-10-18T14:48:06Z</time>
      </trkpt>
      <trkpt lat="49.65369" lon="4.99178">
        <ele>153.47</ele>
        <time>2020-10-18T14:48:40Z</time>
      </trkpt>
      <trkpt lat="49.6537" lon="4.99179">
        <ele>153.95</ele>
        <time>2020-10-18T14:49:07Z</time>
      </trkpt>
      <trkpt lat="49.6537" lon="4.99179">
        <ele>153.47</ele>
        <time>2020-10-18T14:49:42Z</time>
      </trkpt>
      <trkpt lat="49.65371" lon="4.99179">
        <ele>154.43</ele>
        <time>2020-10-18T14:50:16Z</time>
      </trkpt>
      <trkpt lat="49.65371" lon="4.99179">
        <ele>154.43</ele>
        <time>2020-10-18T14:50:45Z</time>
      </trkpt>
      <trkpt lat="49.65371" lon="4.99178">
        <ele>154.91</ele>
        <time>2020-10-18T14:51:00Z</time>
      </trkpt>
      <trkpt lat="49.65366" lon="4.99166">
        <ele>153.47</ele>
        <time>2020-10-18T14:51:10Z</time>
      </trkpt>
      <trkpt lat="49.65349" lon="4.99135">
        <ele>152.51</ele>
        <time>2020-10-18T14:51:32Z</time>
      </trkpt>
      <trkpt lat="49.65336" lon="4.99105">
        <ele>151.06</ele>
        <time>2020-10-18T14:51:53Z</time>
      </trkpt>
      <trkpt lat="49.65326" lon="4.99075">
        <ele>151.06</ele>
        <time>2020-10-18T14:52:12Z</time>
      </trkpt>
      <trkpt lat="49.65323" lon="4.99067">
        <ele>151.54</ele>
        <time>2020-10-18T14:52:18Z</time>
      </trkpt>
      <trkpt lat="49.65315" lon="4.99042">
        <ele>151.54</ele>
        <time>2020-10-18T14:52:35Z</time>
      </trkpt>
      <trkpt lat="49.65314" lon="4.99041">
        <ele>151.54</ele>
        <time>2020-10-18T14:52:36Z</time>
      </trkpt>
      <trkpt lat="49.65297" lon="4.99022">
        <ele>152.99</ele>
        <time>2020-10-18T14:52:56Z</time>
      </trkpt>
      <trkpt lat="49.65281" lon="4.99003">
        <ele>152.03</ele>
        <time>2020-10-18T14:53:15Z</time>
      </trkpt>
      <trkpt lat="49.65277" lon="4.99">
        <ele>151.06</ele>
        <time>2020-10-18T14:53:19Z</time>
      </trkpt>
      <trkpt lat="49.65254" lon="4.98982">
        <ele>152.03</ele>
        <time>2020-10-18T14:53:40Z</time>
      </trkpt>
      <trkpt lat="49.65233" lon="4.98965">
        <ele>152.03</ele>
        <time>2020-10-18T14:54:02Z</time>
      </trkpt>
      <trkpt lat="49.65212" lon="4.98946">
        <ele>152.51</ele>
        <time>2020-10-18T14:54:23Z</time>
      </trkpt>
      <trkpt lat="49.652" lon="4.98936">
        <ele>151.54</ele>
        <time>2020-10-18T14:54:37Z</time>
      </trkpt>
      <trkpt lat="49.65179" lon="4.98916">
        <ele>152.51</ele>
        <time>2020-10-18T14:55:00Z</time>
      </trkpt>
      <trkpt lat="49.6516" lon="4.98901">
        <ele>155.87</ele>
        <time>2020-10-18T14:55:19Z</time>
      </trkpt>
      <trkpt lat="49.65143" lon="4.98882">
        <ele>161.16</ele>
        <time>2020-10-18T14:55:38Z</time>
      </trkpt>
      <trkpt lat="49.65124" lon="4.98863">
        <ele>163.08</ele>
        <time>2020-10-18T14:55:58Z</time>
      </trkpt>
      <trkpt lat="49.65103" lon="4.98844">
        <ele>164.52</ele>
        <time>2020-10-18T14:56:19Z</time>
      </trkpt>
      <trkpt lat="49.65081" lon="4.98822">
        <ele>165</ele>
        <time>2020-10-18T14:56:42Z</time>
      </trkpt>
      <trkpt lat="49.65057" lon="4.98798">
        <ele>164.52</ele>
        <time>2020-10-18T14:57:05Z</time>
      </trkpt>
      <trkpt lat="49.65037" lon="4.98778">
        <ele>162.12</ele>
        <time>2020-10-18T14:57:27Z</time>
      </trkpt>
      <trkpt lat="49.65014" lon="4.98757">
        <ele>159.72</ele>
        <time>2020-10-18T14:57:51Z</time>
      </trkpt>
      <trkpt lat="49.64992" lon="4.98736">
        <ele>158.75</ele>
        <time>2020-10-18T14:58:14Z</time>
      </trkpt>
      <trkpt lat="49.64969" lon="4.98718">
        <ele>158.27</ele>
        <time>2020-10-18T14:58:37Z</time>
      </trkpt>
      <trkpt lat="49.64956" lon="4.9872">
        <ele>156.35</ele>
        <time>2020-10-18T14:58:55Z</time>
      </trkpt>
      <trkpt lat="49.64957" lon="4.98724">
        <ele>154.91</ele>
        <time>2020-10-18T14:59:17Z</time>
      </trkpt>
      <trkpt lat="49.64958" lon="4.98724">
        <ele>155.39</ele>
        <time>2020-10-18T14:59:50Z</time>
      </trkpt>
      <trkpt lat="49.64957" lon="4.98724">
        <ele>155.87</ele>
        <time>2020-10-18T15:00:24Z</time>
      </trkpt>
      <trkpt lat="49.64957" lon="4.98725">
        <ele>156.83</ele>
        <time>2020-10-18T15:00:42Z</time>
      </trkpt>
      <trkpt lat="49.64958" lon="4.98724">
        <ele>159.24</ele>
        <time>2020-10-18T15:01:01Z</time>
      </trkpt>
      <trkpt lat="49.64957" lon="4.98714">
        <ele>159.24</ele>
        <time>2020-10-18T15:01:09Z</time>
      </trkpt>
      <trkpt lat="49.64955" lon="4.98708">
        <ele>159.24</ele>
        <time>2020-10-18T15:01:13Z</time>
      </trkpt>
      <trkpt lat="49.64935" lon="4.98688">
        <ele>156.83</ele>
        <time>2020-10-18T15:01:34Z</time>
      </trkpt>
      <trkpt lat="49.64917" lon="4.98679">
        <ele>155.39</ele>
        <time>2020-10-18T15:01:53Z</time>
      </trkpt>
      <trkpt lat="49.649" lon="4.9867">
        <ele>152.99</ele>
        <time>2020-10-18T15:02:11Z</time>
      </trkpt>
      <trkpt lat="49.6488" lon="4.98656">
        <ele>152.03</ele>
        <time>2020-10-18T15:02:31Z</time>
      </trkpt>
      <trkpt lat="49.64857" lon="4.98639">
        <ele>151.54</ele>
        <time>2020-10-18T15:02:53Z</time>
      </trkpt>
      <trkpt lat="49.64838" lon="4.98627">
        <ele>152.51</ele>
        <time>2020-10-18T15:03:12Z</time>
      </trkpt>
      <trkpt lat="49.6482" lon="4.98615">
        <ele>153.47</ele>
        <time>2020-10-18T15:03:31Z</time>
      </trkpt>
      <trkpt lat="49.64801" lon="4.98603">
        <ele>153.47</ele>
        <time>2020-10-18T15:03:51Z</time>
      </trkpt>
      <trkpt lat="49.64784" lon="4.98594">
        <ele>152.99</ele>
        <time>2020-10-18T15:04:08Z</time>
      </trkpt>
      <trkpt lat="49.64763" lon="4.98581">
        <ele>152.03</ele>
        <time>2020-10-18T15:04:30Z</time>
      </trkpt>
      <trkpt lat="49.64744" lon="4.98572">
        <ele>151.06</ele>
        <time>2020-10-18T15:04:49Z</time>
      </trkpt>
      <trkpt lat="49.64726" lon="4.98563">
        <ele>149.14</ele>
        <time>2020-10-18T15:05:08Z</time>
      </trkpt>
      <trkpt lat="49.64704" lon="4.98555">
        <ele>145.3</ele>
        <time>2020-10-18T15:05:30Z</time>
      </trkpt>
      <trkpt lat="49.64685" lon="4.98543">
        <ele>142.41</ele>
        <time>2020-10-18T15:05:50Z</time>
      </trkpt>
      <trkpt lat="49.64664" lon="4.9853">
        <ele>143.85</ele>
        <time>2020-10-18T15:06:09Z</time>
      </trkpt>
      <trkpt lat="49.64638" lon="4.98517">
        <ele>148.18</ele>
        <time>2020-10-18T15:06:33Z</time>
      </trkpt>
      <trkpt lat="49.64618" lon="4.98505">
        <ele>150.58</ele>
        <time>2020-10-18T15:06:52Z</time>
      </trkpt>
      <trkpt lat="49.64598" lon="4.98495">
        <ele>152.03</ele>
        <time>2020-10-18T15:07:12Z</time>
      </trkpt>
      <trkpt lat="49.64576" lon="4.98478">
        <ele>151.54</ele>
        <time>2020-10-18T15:07:34Z</time>
      </trkpt>
      <trkpt lat="49.64555" lon="4.98465">
        <ele>149.62</ele>
        <time>2020-10-18T15:07:55Z</time>
      </trkpt>
      <trkpt lat="49.64532" lon="4.9845">
        <ele>149.62</ele>
        <time>2020-10-18T15:08:17Z</time>
      </trkpt>
      <trkpt lat="49.64513" lon="4.98442">
        <ele>150.1</ele>
        <time>2020-10-18T15:08:36Z</time>
      </trkpt>
      <trkpt lat="49.64497" lon="4.98433">
        <ele>148.66</ele>
        <time>2020-10-18T15:08:54Z</time>
      </trkpt>
      <trkpt lat="49.64479" lon="4.98422">
        <ele>145.78</ele>
        <time>2020-10-18T15:09:14Z</time>
      </trkpt>
      <trkpt lat="49.64463" lon="4.98414">
        <ele>140.97</ele>
        <time>2020-10-18T15:09:33Z</time>
      </trkpt>
      <trkpt lat="49.64449" lon="4.98402">
        <ele>144.82</ele>
        <time>2020-10-18T15:09:51Z</time>
      </trkpt>
      <trkpt lat="49.64427" lon="4.9839">
        <ele>142.41</ele>
        <time>2020-10-18T15:10:12Z</time>
      </trkpt>
      <trkpt lat="49.64401" lon="4.98372">
        <ele>142.41</ele>
        <time>2020-10-18T15:10:35Z</time>
      </trkpt>
      <trkpt lat="49.64379" lon="4.98357">
        <ele>141.93</ele>
        <time>2020-10-18T15:10:55Z</time>
      </trkpt>
      <trkpt lat="49.6436" lon="4.98345">
        <ele>140.49</ele>
        <time>2020-10-18T15:11:15Z</time>
      </trkpt>
      <trkpt lat="49.64344" lon="4.98334">
        <ele>140.01</ele>
        <time>2020-10-18T15:11:32Z</time>
      </trkpt>
      <trkpt lat="49.64325" lon="4.98318">
        <ele>139.05</ele>
        <time>2020-10-18T15:11:54Z</time>
      </trkpt>
      <trkpt lat="49.64303" lon="4.98297">
        <ele>139.53</ele>
        <time>2020-10-18T15:12:15Z</time>
      </trkpt>
      <trkpt lat="49.64295" lon="4.98289">
        <ele>141.93</ele>
        <time>2020-10-18T15:12:34Z</time>
      </trkpt>
      <trkpt lat="49.64285" lon="4.98284">
        <ele>144.82</ele>
        <time>2020-10-18T15:12:56Z</time>
      </trkpt>
      <trkpt lat="49.6427" lon="4.98274">
        <ele>141.93</ele>
        <time>2020-10-18T15:13:14Z</time>
      </trkpt>
      <trkpt lat="49.64265" lon="4.9827">
        <ele>140.97</ele>
        <time>2020-10-18T15:13:17Z</time>
      </trkpt>
      <trkpt lat="49.64239" lon="4.98248">
        <ele>138.57</ele>
        <time>2020-10-18T15:13:35Z</time>
      </trkpt>
      <trkpt lat="49.64214" lon="4.98231">
        <ele>141.45</ele>
        <time>2020-10-18T15:13:56Z</time>
      </trkpt>
      <trkpt lat="49.64191" lon="4.98206">
        <ele>143.85</ele>
        <time>2020-10-18T15:14:16Z</time>
      </trkpt>
      <trkpt lat="49.64173" lon="4.98186">
        <ele>141.93</ele>
        <time>2020-10-18T15:14:35Z</time>
      </trkpt>
      <trkpt lat="49.64153" lon="4.98163">
        <ele>144.34</ele>
        <time>2020-10-18T15:14:55Z</time>
      </trkpt>
      <trkpt lat="49.64143" lon="4.98151">
        <ele>147.7</ele>
        <time>2020-10-18T15:15:16Z</time>
      </trkpt>
      <trkpt lat="49.64132" lon="4.98146">
        <ele>149.62</ele>
        <time>2020-10-18T15:15:41Z</time>
      </trkpt>
      <trkpt lat="49.64125" lon="4.9814">
        <ele>150.1</ele>
        <time>2020-10-18T15:16:00Z</time>
      </trkpt>
      <trkpt lat="49.64119" lon="4.98137">
        <ele>151.54</ele>
        <time>2020-10-18T15:16:21Z</time>
      </trkpt>
      <trkpt lat="49.64113" lon="4.98135">
        <ele>152.03</ele>
        <time>2020-10-18T15:16:40Z</time>
      </trkpt>
      <trkpt lat="49.64107" lon="4.98131">
        <ele>152.51</ele>
        <time>2020-10-18T15:17:00Z</time>
      </trkpt>
      <trkpt lat="49.64093" lon="4.9812">
        <ele>149.14</ele>
        <time>2020-10-18T15:17:21Z</time>
      </trkpt>
      <trkpt lat="49.64073" lon="4.98104">
        <ele>148.66</ele>
        <time>2020-10-18T15:17:39Z</time>
      </trkpt>
      <trkpt lat="49.64059" lon="4.98092">
        <ele>149.14</ele>
        <time>2020-10-18T15:17:56Z</time>
      </trkpt>
      <trkpt lat="49.64037" lon="4.98075">
        <ele>149.14</ele>
        <time>2020-10-18T15:18:19Z</time>
      </trkpt>
      <trkpt lat="49.64019" lon="4.98062">
        <ele>149.62</ele>
        <time>2020-10-18T15:18:38Z</time>
      </trkpt>
      <trkpt lat="49.64007" lon="4.98053">
        <ele>150.58</ele>
        <time>2020-10-18T15:18:58Z</time>
      </trkpt>
      <trkpt lat="49.63997" lon="4.98042">
        <ele>152.99</ele>
        <time>2020-10-18T15:19:18Z</time>
      </trkpt>
      <trkpt lat="49.63989" lon="4.98033">
        <ele>154.91</ele>
        <time>2020-10-18T15:19:34Z</time>
      </trkpt>
      <trkpt lat="49.63979" lon="4.98021">
        <ele>159.72</ele>
        <time>2020-10-18T15:19:53Z</time>
      </trkpt>
      <trkpt lat="49.63968" lon="4.9801">
        <ele>163.56</ele>
        <time>2020-10-18T15:20:11Z</time>
      </trkpt>
      <trkpt lat="49.63951" lon="4.97991">
        <ele>164.04</ele>
        <time>2020-10-18T15:20:28Z</time>
      </trkpt>
      <trkpt lat="49.63929" lon="4.97969">
        <ele>161.64</ele>
        <time>2020-10-18T15:20:47Z</time>
      </trkpt>
      <trkpt lat="49.63899" lon="4.97941">
        <ele>159.72</ele>
        <time>2020-10-18T15:21:04Z</time>
      </trkpt>
      <trkpt lat="49.63861" lon="4.97906">
        <ele>158.75</ele>
        <time>2020-10-18T15:21:22Z</time>
      </trkpt>
      <trkpt lat="49.6383" lon="4.97879">
        <ele>154.43</ele>
        <time>2020-10-18T15:21:40Z</time>
      </trkpt>
      <trkpt lat="49.63799" lon="4.97845">
        <ele>156.35</ele>
        <time>2020-10-18T15:21:59Z</time>
      </trkpt>
      <trkpt lat="49.63772" lon="4.97805">
        <ele>160.2</ele>
        <time>2020-10-18T15:22:17Z</time>
      </trkpt>
      <trkpt lat="49.63752" lon="4.97785">
        <ele>159.72</ele>
        <time>2020-10-18T15:22:36Z</time>
      </trkpt>
      <trkpt lat="49.63732" lon="4.97766">
        <ele>159.72</ele>
        <time>2020-10-18T15:22:53Z</time>
      </trkpt>
      <trkpt lat="49.63707" lon="4.97747">
        <ele>161.16</ele>
        <time>2020-10-18T15:23:14Z</time>
      </trkpt>
      <trkpt lat="49.63692" lon="4.97736">
        <ele>160.68</ele>
        <time>2020-10-18T15:23:31Z</time>
      </trkpt>
      <trkpt lat="49.63686" lon="4.97731">
        <ele>160.2</ele>
        <time>2020-10-18T15:23:38Z</time>
      </trkpt>
      <trkpt lat="49.63672" lon="4.97723">
        <ele>158.75</ele>
        <time>2020-10-18T15:23:52Z</time>
      </trkpt>
      <trkpt lat="49.63651" lon="4.97706">
        <ele>163.08</ele>
        <time>2020-10-18T15:24:11Z</time>
      </trkpt>
      <trkpt lat="49.63649" lon="4.97704">
        <ele>163.56</ele>
        <time>2020-10-18T15:24:14Z</time>
      </trkpt>
      <trkpt lat="49.63642" lon="4.97697">
        <ele>163.08</ele>
        <time>2020-10-18T15:24:21Z</time>
      </trkpt>
      <trkpt lat="49.63624" lon="4.97676">
        <ele>164.52</ele>
        <time>2020-10-18T15:24:39Z</time>
      </trkpt>
      <trkpt lat="49.63606" lon="4.97664">
        <ele>165.96</ele>
        <time>2020-10-18T15:24:58Z</time>
      </trkpt>
      <trkpt lat="49.63603" lon="4.97665">
        <ele>165</ele>
        <time>2020-10-18T15:25:01Z</time>
      </trkpt>
      <trkpt lat="49.63599" lon="4.97669">
        <ele>164.04</ele>
        <time>2020-10-18T15:25:05Z</time>
      </trkpt>
      <trkpt lat="49.63585" lon="4.97682">
        <ele>163.56</ele>
        <time>2020-10-18T15:25:24Z</time>
      </trkpt>
      <trkpt lat="49.63571" lon="4.97704">
        <ele>161.64</ele>
        <time>2020-10-18T15:25:44Z</time>
      </trkpt>
      <trkpt lat="49.63568" lon="4.97707">
        <ele>160.68</ele>
        <time>2020-10-18T15:25:47Z</time>
      </trkpt>
      <trkpt lat="49.63559" lon="4.9773">
        <ele>160.2</ele>
        <time>2020-10-18T15:26:03Z</time>
      </trkpt>
      <trkpt lat="49.63549" lon="4.97754">
        <ele>163.56</ele>
        <time>2020-10-18T15:26:23Z</time>
      </trkpt>
      <trkpt lat="49.63539" lon="4.97771">
        <ele>164.52</ele>
        <time>2020-10-18T15:26:37Z</time>
      </trkpt>
      <trkpt lat="49.63521" lon="4.97792">
        <ele>167.89</ele>
        <time>2020-10-18T15:26:58Z</time>
      </trkpt>
      <trkpt lat="49.63507" lon="4.97807">
        <ele>172.21</ele>
        <time>2020-10-18T15:27:14Z</time>
      </trkpt>
      <trkpt lat="49.63496" lon="4.97818">
        <ele>172.21</ele>
        <time>2020-10-18T15:27:29Z</time>
      </trkpt>
      <trkpt lat="49.6349" lon="4.97826">
        <ele>166.93</ele>
        <time>2020-10-18T15:27:41Z</time>
      </trkpt>
      <trkpt lat="49.63485" lon="4.97848">
        <ele>163.56</ele>
        <time>2020-10-18T15:27:55Z</time>
      </trkpt>
      <trkpt lat="49.63465" lon="4.97868">
        <ele>165</ele>
        <time>2020-10-18T15:28:16Z</time>
      </trkpt>
      <trkpt lat="49.6345" lon="4.97892">
        <ele>165</ele>
        <time>2020-10-18T15:28:34Z</time>
      </trkpt>
      <trkpt lat="49.6343" lon="4.97902">
        <ele>165</ele>
        <time>2020-10-18T15:28:52Z</time>
      </trkpt>
      <trkpt lat="49.63429" lon="4.97903">
        <ele>165</ele>
        <time>2020-10-18T15:28:53Z</time>
      </trkpt>
      <trkpt lat="49.63411" lon="4.97915">
        <ele>168.85</ele>
        <time>2020-10-18T15:29:12Z</time>
      </trkpt>
      <trkpt lat="49.63397" lon="4.9793">
        <ele>169.81</ele>
        <time>2020-10-18T15:29:30Z</time>
      </trkpt>
      <trkpt lat="49.63385" lon="4.97945">
        <ele>170.29</ele>
        <time>2020-10-18T15:29:50Z</time>
      </trkpt>
      <trkpt lat="49.63386" lon="4.97953">
        <ele>171.73</ele>
        <time>2020-10-18T15:29:56Z</time>
      </trkpt>
      <trkpt lat="49.63398" lon="4.97983">
        <ele>174.14</ele>
        <time>2020-10-18T15:30:18Z</time>
      </trkpt>
      <trkpt lat="49.63409" lon="4.98003">
        <ele>176.06</ele>
        <time>2020-10-18T15:30:36Z</time>
      </trkpt>
      <trkpt lat="49.6342" lon="4.98028">
        <ele>178.94</ele>
        <time>2020-10-18T15:30:55Z</time>
      </trkpt>
      <trkpt lat="49.63426" lon="4.98032">
        <ele>182.31</ele>
        <time>2020-10-18T15:31:12Z</time>
      </trkpt>
      <trkpt lat="49.63436" lon="4.98041">
        <ele>183.75</ele>
        <time>2020-10-18T15:31:28Z</time>
      </trkpt>
      <trkpt lat="49.6344" lon="4.98045">
        <ele>183.75</ele>
        <time>2020-10-18T15:31:41Z</time>
      </trkpt>
      <trkpt lat="49.63471" lon="4.98037">
        <ele>162.6</ele>
        <time>2020-10-18T15:32:01Z</time>
      </trkpt>
      <trkpt lat="49.63456" lon="4.98024">
        <ele>159.72</ele>
        <time>2020-10-18T15:32:11Z</time>
      </trkpt>
    </trkseg>
  </trk>
</gpx>